<?xml version="1.0" encoding="UTF-8" standalone="no" ?>
<gpx xmlns="http://www.topografix.com/GPX/1/1" xmlns:xsi="http://www.w3.org/2001/XMLSchema-instance" xsi:schemaLocation="http://www.topografix.com/GPX/1/1 http://www.topografix.com/GPX/1/1/gpx.xsd" version="1.1" creator="VisuGPX - https://www.visugpx.com">
  <metadata>
    <name>Neuvicoise 2024</name>
    <desc><![CDATA[Parcours créé sur Trace de Trail]]></desc>
  </metadata>
  <trk>
    <name><![CDATA[Neuvicoise 2024_6]]></name>
    <desc><![CDATA[

]]></desc>
    <extensions>
      <line xmlns="http://www.topografix.com/GPX/gpx_style/0/2">
        <color>FF00FF</color>
        <width>4</width>
      </line>
    </extensions>
    <trkseg>
      <trkpt lat="45.39106" lon="2.304">
        <ele>614.8</ele>
        <time>2024-09-12T18:53:03+00:00</time>
      </trkpt>
      <trkpt lat="45.3911" lon="2.30366">
        <ele>625</ele>
        <time>2024-09-12T18:53:06+00:00</time>
      </trkpt>
      <trkpt lat="45.39145" lon="2.30393">
        <ele>628</ele>
        <time>2024-09-12T18:53:09+00:00</time>
      </trkpt>
      <trkpt lat="45.39163" lon="2.30447">
        <ele>630</ele>
        <time>2024-09-12T18:53:12+00:00</time>
      </trkpt>
      <trkpt lat="45.39178" lon="2.30474">
        <ele>632</ele>
        <time>2024-09-12T18:53:15+00:00</time>
      </trkpt>
      <trkpt lat="45.39195" lon="2.30503">
        <ele>632</ele>
        <time>2024-09-12T18:53:18+00:00</time>
      </trkpt>
      <trkpt lat="45.39215" lon="2.30522">
        <ele>632</ele>
        <time>2024-09-12T18:53:21+00:00</time>
      </trkpt>
      <trkpt lat="45.39234" lon="2.30529">
        <ele>633.6</ele>
      </trkpt>
      <trkpt lat="45.39248" lon="2.30534">
        <ele>634.2</ele>
        <time>2024-09-12T18:53:24+00:00</time>
      </trkpt>
      <trkpt lat="45.39291" lon="2.30542">
        <ele>635.9</ele>
        <time>2024-09-12T18:53:27+00:00</time>
      </trkpt>
      <trkpt lat="45.39318" lon="2.30553">
        <ele>638.8</ele>
      </trkpt>
      <trkpt lat="45.3932" lon="2.30548">
        <ele>643</ele>
        <time>2024-09-12T18:53:33+00:00</time>
      </trkpt>
      <trkpt lat="45.39342" lon="2.30567">
        <ele>645</ele>
        <time>2024-09-12T18:53:36+00:00</time>
      </trkpt>
      <trkpt lat="45.39357" lon="2.30593">
        <ele>647</ele>
        <time>2024-09-12T18:53:39+00:00</time>
      </trkpt>
      <trkpt lat="45.39385" lon="2.30618">
        <ele>648.8</ele>
        <time>2024-09-12T18:53:42+00:00</time>
      </trkpt>
      <trkpt lat="45.39377" lon="2.30654">
        <ele>649.4</ele>
      </trkpt>
      <trkpt lat="45.39381" lon="2.30687">
        <ele>651.4</ele>
        <time>2024-09-12T18:53:48+00:00</time>
      </trkpt>
      <trkpt lat="45.39475" lon="2.30674">
        <ele>649</ele>
        <time>2024-09-12T18:54:00+00:00</time>
      </trkpt>
      <trkpt lat="45.39501" lon="2.30672">
        <ele>651</ele>
        <time>2024-09-12T18:54:03+00:00</time>
      </trkpt>
      <trkpt lat="45.3953" lon="2.3067">
        <ele>651</ele>
        <time>2024-09-12T18:54:06+00:00</time>
      </trkpt>
      <trkpt lat="45.39556" lon="2.30667">
        <ele>651</ele>
        <time>2024-09-12T18:54:09+00:00</time>
      </trkpt>
      <trkpt lat="45.39585" lon="2.30663">
        <ele>651</ele>
        <time>2024-09-12T18:54:12+00:00</time>
      </trkpt>
      <trkpt lat="45.39608" lon="2.3065">
        <ele>652</ele>
        <time>2024-09-12T18:54:15+00:00</time>
      </trkpt>
      <trkpt lat="45.39628" lon="2.30614">
        <ele>653</ele>
        <time>2024-09-12T18:54:18+00:00</time>
      </trkpt>
      <trkpt lat="45.39634" lon="2.30572">
        <ele>653</ele>
        <time>2024-09-12T18:54:21+00:00</time>
      </trkpt>
      <trkpt lat="45.39628" lon="2.30537">
        <ele>653</ele>
        <time>2024-09-12T18:54:24+00:00</time>
      </trkpt>
      <trkpt lat="45.39646" lon="2.30506">
        <ele>656</ele>
        <time>2024-09-12T18:54:27+00:00</time>
      </trkpt>
      <trkpt lat="45.39702" lon="2.30506">
        <ele>659</ele>
        <time>2024-09-12T18:54:30+00:00</time>
      </trkpt>
      <trkpt lat="45.39741" lon="2.30498">
        <ele>670</ele>
        <time>2024-09-12T18:54:33+00:00</time>
      </trkpt>
      <trkpt lat="45.39774" lon="2.3048">
        <ele>673</ele>
        <time>2024-09-12T18:54:36+00:00</time>
      </trkpt>
      <trkpt lat="45.39813" lon="2.30494">
        <ele>674</ele>
        <time>2024-09-12T18:54:39+00:00</time>
      </trkpt>
      <trkpt lat="45.39834" lon="2.30513">
        <ele>672</ele>
        <time>2024-09-12T18:54:42+00:00</time>
      </trkpt>
      <trkpt lat="45.39851" lon="2.30551">
        <ele>671</ele>
        <time>2024-09-12T18:54:45+00:00</time>
      </trkpt>
      <trkpt lat="45.39853" lon="2.30584">
        <ele>669</ele>
        <time>2024-09-12T18:54:48+00:00</time>
      </trkpt>
      <trkpt lat="45.39848" lon="2.3065">
        <ele>667</ele>
        <time>2024-09-12T18:54:51+00:00</time>
      </trkpt>
      <trkpt lat="45.39855" lon="2.30676">
        <ele>665</ele>
        <time>2024-09-12T18:54:54+00:00</time>
      </trkpt>
      <trkpt lat="45.3987" lon="2.30701">
        <ele>664</ele>
        <time>2024-09-12T18:54:57+00:00</time>
      </trkpt>
      <trkpt lat="45.39915" lon="2.30718">
        <ele>658</ele>
        <time>2024-09-12T18:55:00+00:00</time>
      </trkpt>
      <trkpt lat="45.39948" lon="2.30733">
        <ele>655</ele>
        <time>2024-09-12T18:55:03+00:00</time>
      </trkpt>
      <trkpt lat="45.39973" lon="2.30739">
        <ele>654</ele>
        <time>2024-09-12T18:55:06+00:00</time>
      </trkpt>
      <trkpt lat="45.40009" lon="2.30733">
        <ele>653</ele>
        <time>2024-09-12T18:55:09+00:00</time>
      </trkpt>
      <trkpt lat="45.40034" lon="2.30723">
        <ele>653</ele>
        <time>2024-09-12T18:55:12+00:00</time>
      </trkpt>
      <trkpt lat="45.40063" lon="2.3071">
        <ele>660</ele>
        <time>2024-09-12T18:55:15+00:00</time>
      </trkpt>
      <trkpt lat="45.40096" lon="2.30679">
        <ele>664</ele>
        <time>2024-09-12T18:55:18+00:00</time>
      </trkpt>
      <trkpt lat="45.40123" lon="2.30682">
        <ele>664</ele>
        <time>2024-09-12T18:55:21+00:00</time>
      </trkpt>
      <trkpt lat="45.40158" lon="2.3066">
        <ele>663</ele>
        <time>2024-09-12T18:55:24+00:00</time>
      </trkpt>
      <trkpt lat="45.40182" lon="2.30637">
        <ele>663</ele>
        <time>2024-09-12T18:55:27+00:00</time>
      </trkpt>
      <trkpt lat="45.40221" lon="2.306">
        <ele>664</ele>
        <time>2024-09-12T18:55:30+00:00</time>
      </trkpt>
      <trkpt lat="45.40248" lon="2.30574">
        <ele>666</ele>
        <time>2024-09-12T18:55:33+00:00</time>
      </trkpt>
      <trkpt lat="45.40275" lon="2.30548">
        <ele>665</ele>
        <time>2024-09-12T18:55:36+00:00</time>
      </trkpt>
      <trkpt lat="45.40306" lon="2.30518">
        <ele>665</ele>
        <time>2024-09-12T18:55:39+00:00</time>
      </trkpt>
      <trkpt lat="45.40353" lon="2.30495">
        <ele>666</ele>
        <time>2024-09-12T18:55:42+00:00</time>
      </trkpt>
      <trkpt lat="45.4039" lon="2.30476">
        <ele>667</ele>
        <time>2024-09-12T18:55:45+00:00</time>
      </trkpt>
      <trkpt lat="45.40483" lon="2.30434">
        <ele>676</ele>
        <time>2024-09-12T18:55:48+00:00</time>
      </trkpt>
      <trkpt lat="45.40513" lon="2.30424">
        <ele>676</ele>
        <time>2024-09-12T18:55:51+00:00</time>
      </trkpt>
      <trkpt lat="45.40542" lon="2.30419">
        <ele>672</ele>
        <time>2024-09-12T18:55:54+00:00</time>
      </trkpt>
      <trkpt lat="45.40575" lon="2.30427">
        <ele>669</ele>
        <time>2024-09-12T18:55:57+00:00</time>
      </trkpt>
      <trkpt lat="45.40605" lon="2.30442">
        <ele>670</ele>
        <time>2024-09-12T18:56:00+00:00</time>
      </trkpt>
      <trkpt lat="45.40625" lon="2.30468">
        <ele>666</ele>
        <time>2024-09-12T18:56:03+00:00</time>
      </trkpt>
      <trkpt lat="45.40643" lon="2.30489">
        <ele>665</ele>
        <time>2024-09-12T18:56:06+00:00</time>
      </trkpt>
      <trkpt lat="45.40672" lon="2.30493">
        <ele>665</ele>
        <time>2024-09-12T18:56:09+00:00</time>
      </trkpt>
      <trkpt lat="45.40699" lon="2.30497">
        <ele>662</ele>
        <time>2024-09-12T18:56:12+00:00</time>
      </trkpt>
      <trkpt lat="45.40734" lon="2.30501">
        <ele>662</ele>
        <time>2024-09-12T18:56:15+00:00</time>
      </trkpt>
      <trkpt lat="45.40762" lon="2.3049">
        <ele>660</ele>
        <time>2024-09-12T18:56:18+00:00</time>
      </trkpt>
      <trkpt lat="45.40807" lon="2.30472">
        <ele>659</ele>
        <time>2024-09-12T18:56:21+00:00</time>
      </trkpt>
      <trkpt lat="45.40824" lon="2.30447">
        <ele>659</ele>
        <time>2024-09-12T18:56:24+00:00</time>
      </trkpt>
      <trkpt lat="45.40845" lon="2.30413">
        <ele>659</ele>
        <time>2024-09-12T18:56:27+00:00</time>
      </trkpt>
      <trkpt lat="45.4085" lon="2.30374">
        <ele>665</ele>
        <time>2024-09-12T18:56:30+00:00</time>
      </trkpt>
      <trkpt lat="45.40844" lon="2.30337">
        <ele>665</ele>
        <time>2024-09-12T18:56:33+00:00</time>
      </trkpt>
      <trkpt lat="45.40868" lon="2.30316">
        <ele>664</ele>
        <time>2024-09-12T18:56:36+00:00</time>
      </trkpt>
      <trkpt lat="45.40906" lon="2.30297">
        <ele>663</ele>
        <time>2024-09-12T18:56:39+00:00</time>
      </trkpt>
      <trkpt lat="45.40937" lon="2.30284">
        <ele>663</ele>
        <time>2024-09-12T18:56:42+00:00</time>
      </trkpt>
      <trkpt lat="45.4101" lon="2.30284">
        <ele>653</ele>
        <time>2024-09-12T18:56:45+00:00</time>
      </trkpt>
      <trkpt lat="45.4104" lon="2.30268">
        <ele>651</ele>
        <time>2024-09-12T18:56:48+00:00</time>
      </trkpt>
      <trkpt lat="45.41071" lon="2.30241">
        <ele>644</ele>
        <time>2024-09-12T18:56:51+00:00</time>
      </trkpt>
      <trkpt lat="45.41101" lon="2.30214">
        <ele>638</ele>
        <time>2024-09-12T18:56:54+00:00</time>
      </trkpt>
      <trkpt lat="45.41131" lon="2.30187">
        <ele>635</ele>
        <time>2024-09-12T18:56:57+00:00</time>
      </trkpt>
      <trkpt lat="45.41162" lon="2.30158">
        <ele>629</ele>
        <time>2024-09-12T18:57:00+00:00</time>
      </trkpt>
      <trkpt lat="45.41181" lon="2.30143">
        <ele>629</ele>
        <time>2024-09-12T18:57:03+00:00</time>
      </trkpt>
      <trkpt lat="45.41222" lon="2.3005">
        <ele>623</ele>
        <time>2024-09-12T18:57:06+00:00</time>
      </trkpt>
      <trkpt lat="45.41246" lon="2.29994">
        <ele>613</ele>
        <time>2024-09-12T18:57:09+00:00</time>
      </trkpt>
      <trkpt lat="45.41262" lon="2.29969">
        <ele>613</ele>
        <time>2024-09-12T18:57:12+00:00</time>
      </trkpt>
      <trkpt lat="45.41278" lon="2.29945">
        <ele>614</ele>
        <time>2024-09-12T18:57:15+00:00</time>
      </trkpt>
      <trkpt lat="45.41285" lon="2.29904">
        <ele>613</ele>
        <time>2024-09-12T18:57:18+00:00</time>
      </trkpt>
      <trkpt lat="45.41289" lon="2.29847">
        <ele>613</ele>
        <time>2024-09-12T18:57:21+00:00</time>
      </trkpt>
      <trkpt lat="45.41306" lon="2.29794">
        <ele>612</ele>
        <time>2024-09-12T18:57:24+00:00</time>
      </trkpt>
      <trkpt lat="45.4133" lon="2.29742">
        <ele>612</ele>
        <time>2024-09-12T18:57:27+00:00</time>
      </trkpt>
      <trkpt lat="45.41352" lon="2.29727">
        <ele>609</ele>
        <time>2024-09-12T18:57:30+00:00</time>
      </trkpt>
      <trkpt lat="45.41375" lon="2.29723">
        <ele>609</ele>
        <time>2024-09-12T18:57:33+00:00</time>
      </trkpt>
      <trkpt lat="45.4141" lon="2.29722">
        <ele>608</ele>
        <time>2024-09-12T18:57:36+00:00</time>
      </trkpt>
      <trkpt lat="45.41428" lon="2.297">
        <ele>608</ele>
        <time>2024-09-12T18:57:39+00:00</time>
      </trkpt>
      <trkpt lat="45.41442" lon="2.29673">
        <ele>608</ele>
        <time>2024-09-12T18:57:42+00:00</time>
      </trkpt>
      <trkpt lat="45.41458" lon="2.2964">
        <ele>614</ele>
        <time>2024-09-12T18:57:45+00:00</time>
      </trkpt>
      <trkpt lat="45.41464" lon="2.29613">
        <ele>614</ele>
        <time>2024-09-12T18:57:48+00:00</time>
      </trkpt>
      <trkpt lat="45.41436" lon="2.29561">
        <ele>614</ele>
        <time>2024-09-12T18:57:51+00:00</time>
      </trkpt>
      <trkpt lat="45.41414" lon="2.29538">
        <ele>614</ele>
        <time>2024-09-12T18:57:54+00:00</time>
      </trkpt>
      <trkpt lat="45.41391" lon="2.29524">
        <ele>613</ele>
        <time>2024-09-12T18:57:57+00:00</time>
      </trkpt>
      <trkpt lat="45.41356" lon="2.29514">
        <ele>612</ele>
        <time>2024-09-12T18:58:00+00:00</time>
      </trkpt>
      <trkpt lat="45.41321" lon="2.29503">
        <ele>608</ele>
        <time>2024-09-12T18:58:03+00:00</time>
      </trkpt>
      <trkpt lat="45.41295" lon="2.29465">
        <ele>600.1</ele>
      </trkpt>
      <trkpt lat="45.41242" lon="2.29409">
        <ele>601.8</ele>
        <time>2024-09-12T18:58:06+00:00</time>
      </trkpt>
      <trkpt lat="45.41203" lon="2.29386">
        <ele>600.3</ele>
        <time>2024-09-12T18:58:09+00:00</time>
      </trkpt>
      <trkpt lat="45.41186" lon="2.29458">
        <ele>599.9</ele>
      </trkpt>
      <trkpt lat="45.41159" lon="2.29486">
        <ele>604</ele>
        <time>2024-09-12T18:58:12+00:00</time>
      </trkpt>
      <trkpt lat="45.41135" lon="2.29475">
        <ele>599.7</ele>
        <time>2024-09-12T18:58:15+00:00</time>
      </trkpt>
      <trkpt lat="45.41093" lon="2.29383">
        <ele>600.4</ele>
        <time>2024-09-12T18:58:18+00:00</time>
      </trkpt>
      <trkpt lat="45.41054" lon="2.29363">
        <ele>601.2</ele>
        <time>2024-09-12T18:58:21+00:00</time>
      </trkpt>
      <trkpt lat="45.40987" lon="2.29389">
        <ele>602</ele>
        <time>2024-09-12T18:58:24+00:00</time>
      </trkpt>
      <trkpt lat="45.40978" lon="2.29351">
        <ele>602.6</ele>
      </trkpt>
      <trkpt lat="45.41" lon="2.29328">
        <ele>601.4</ele>
        <time>2024-09-12T18:58:27+00:00</time>
      </trkpt>
      <trkpt lat="45.40984" lon="2.29245">
        <ele>601.4</ele>
        <time>2024-09-12T18:58:30+00:00</time>
      </trkpt>
      <trkpt lat="45.40937" lon="2.29216">
        <ele>601.5</ele>
        <time>2024-09-12T18:58:33+00:00</time>
      </trkpt>
      <trkpt lat="45.40898" lon="2.29191">
        <ele>598</ele>
        <time>2024-09-12T18:58:36+00:00</time>
      </trkpt>
      <trkpt lat="45.40894" lon="2.29042">
        <ele>595</ele>
        <time>2024-09-12T18:58:39+00:00</time>
      </trkpt>
      <trkpt lat="45.40893" lon="2.29007">
        <ele>595</ele>
        <time>2024-09-12T18:58:42+00:00</time>
      </trkpt>
      <trkpt lat="45.40885" lon="2.28959">
        <ele>602</ele>
        <time>2024-09-12T18:58:45+00:00</time>
      </trkpt>
      <trkpt lat="45.40818" lon="2.29019">
        <ele>602.2</ele>
      </trkpt>
      <trkpt lat="45.4079" lon="2.29039">
        <ele>601.9</ele>
      </trkpt>
      <trkpt lat="45.40754" lon="2.29029">
        <ele>601.3</ele>
        <time>2024-09-12T18:58:48+00:00</time>
      </trkpt>
      <trkpt lat="45.40723" lon="2.28983">
        <ele>601.6</ele>
        <time>2024-09-12T18:58:51+00:00</time>
      </trkpt>
      <trkpt lat="45.40705" lon="2.28957">
        <ele>600.9</ele>
        <time>2024-09-12T18:58:54+00:00</time>
      </trkpt>
      <trkpt lat="45.40705" lon="2.28931">
        <ele>608</ele>
        <time>2024-09-12T18:58:57+00:00</time>
      </trkpt>
      <trkpt lat="45.40693" lon="2.28873">
        <ele>601.3</ele>
        <time>2024-09-12T18:59:00+00:00</time>
      </trkpt>
      <trkpt lat="45.40712" lon="2.28821">
        <ele>602.5</ele>
        <time>2024-09-12T18:59:03+00:00</time>
      </trkpt>
      <trkpt lat="45.40735" lon="2.2879">
        <ele>603.5</ele>
        <time>2024-09-12T18:59:06+00:00</time>
      </trkpt>
      <trkpt lat="45.40738" lon="2.28756">
        <ele>601.7</ele>
        <time>2024-09-12T18:59:09+00:00</time>
      </trkpt>
      <trkpt lat="45.40772" lon="2.28711">
        <ele>601.1</ele>
        <time>2024-09-12T18:59:12+00:00</time>
      </trkpt>
      <trkpt lat="45.40813" lon="2.28681">
        <ele>600.7</ele>
      </trkpt>
      <trkpt lat="45.40832" lon="2.28661">
        <ele>600.6</ele>
        <time>2024-09-12T18:59:18+00:00</time>
      </trkpt>
      <trkpt lat="45.40854" lon="2.286">
        <ele>600.8</ele>
        <time>2024-09-12T18:59:21+00:00</time>
      </trkpt>
      <trkpt lat="45.40911" lon="2.28544">
        <ele>600.7</ele>
        <time>2024-09-12T18:59:24+00:00</time>
      </trkpt>
      <trkpt lat="45.40975" lon="2.2861">
        <ele>607.8</ele>
        <time>2024-09-12T18:59:27+00:00</time>
      </trkpt>
      <trkpt lat="45.4099" lon="2.28609">
        <ele>602</ele>
        <time>2024-09-12T18:59:30+00:00</time>
      </trkpt>
      <trkpt lat="45.4103" lon="2.28576">
        <ele>602</ele>
        <time>2024-09-12T18:59:33+00:00</time>
      </trkpt>
      <trkpt lat="45.41049" lon="2.28555">
        <ele>603</ele>
        <time>2024-09-12T18:59:36+00:00</time>
      </trkpt>
      <trkpt lat="45.41067" lon="2.28516">
        <ele>603</ele>
        <time>2024-09-12T18:59:39+00:00</time>
      </trkpt>
      <trkpt lat="45.41077" lon="2.28489">
        <ele>604</ele>
        <time>2024-09-12T18:59:42+00:00</time>
      </trkpt>
      <trkpt lat="45.41058" lon="2.28478">
        <ele>605</ele>
        <time>2024-09-12T18:59:45+00:00</time>
      </trkpt>
      <trkpt lat="45.41025" lon="2.28456">
        <ele>608.2</ele>
        <time>2024-09-12T18:59:48+00:00</time>
      </trkpt>
      <trkpt lat="45.41066" lon="2.28449">
        <ele>605</ele>
        <time>2024-09-12T18:59:51+00:00</time>
      </trkpt>
      <trkpt lat="45.41096" lon="2.28448">
        <ele>605</ele>
        <time>2024-09-12T18:59:54+00:00</time>
      </trkpt>
      <trkpt lat="45.41146" lon="2.28445">
        <ele>606</ele>
        <time>2024-09-12T18:59:57+00:00</time>
      </trkpt>
      <trkpt lat="45.41174" lon="2.28455">
        <ele>615</ele>
        <time>2024-09-12T19:00:00+00:00</time>
      </trkpt>
      <trkpt lat="45.41217" lon="2.28471">
        <ele>615</ele>
        <time>2024-09-12T19:00:03+00:00</time>
      </trkpt>
      <trkpt lat="45.41246" lon="2.28475">
        <ele>615</ele>
        <time>2024-09-12T19:00:06+00:00</time>
      </trkpt>
      <trkpt lat="45.41293" lon="2.28483">
        <ele>615</ele>
        <time>2024-09-12T19:00:09+00:00</time>
      </trkpt>
      <trkpt lat="45.41324" lon="2.28486">
        <ele>616</ele>
        <time>2024-09-12T19:00:12+00:00</time>
      </trkpt>
      <trkpt lat="45.41376" lon="2.2849">
        <ele>616</ele>
        <time>2024-09-12T19:00:15+00:00</time>
      </trkpt>
      <trkpt lat="45.41409" lon="2.28466">
        <ele>617</ele>
        <time>2024-09-12T19:00:18+00:00</time>
      </trkpt>
      <trkpt lat="45.41441" lon="2.28442">
        <ele>619</ele>
        <time>2024-09-12T19:00:21+00:00</time>
      </trkpt>
      <trkpt lat="45.41473" lon="2.28418">
        <ele>622</ele>
        <time>2024-09-12T19:00:24+00:00</time>
      </trkpt>
      <trkpt lat="45.41515" lon="2.28387">
        <ele>629</ele>
        <time>2024-09-12T19:00:27+00:00</time>
      </trkpt>
      <trkpt lat="45.41547" lon="2.28366">
        <ele>635</ele>
        <time>2024-09-12T19:00:30+00:00</time>
      </trkpt>
      <trkpt lat="45.41579" lon="2.28345">
        <ele>642</ele>
        <time>2024-09-12T19:00:33+00:00</time>
      </trkpt>
      <trkpt lat="45.41643" lon="2.28303">
        <ele>643</ele>
        <time>2024-09-12T19:00:36+00:00</time>
      </trkpt>
      <trkpt lat="45.41668" lon="2.28291">
        <ele>644</ele>
        <time>2024-09-12T19:00:39+00:00</time>
      </trkpt>
      <trkpt lat="45.41702" lon="2.28275">
        <ele>644</ele>
        <time>2024-09-12T19:00:42+00:00</time>
      </trkpt>
      <trkpt lat="45.41735" lon="2.28257">
        <ele>642</ele>
        <time>2024-09-12T19:00:45+00:00</time>
      </trkpt>
      <trkpt lat="45.41768" lon="2.28238">
        <ele>641</ele>
        <time>2024-09-12T19:00:48+00:00</time>
      </trkpt>
      <trkpt lat="45.41801" lon="2.2822">
        <ele>638</ele>
        <time>2024-09-12T19:00:51+00:00</time>
      </trkpt>
      <trkpt lat="45.41836" lon="2.282">
        <ele>641</ele>
        <time>2024-09-12T19:00:54+00:00</time>
      </trkpt>
      <trkpt lat="45.41855" lon="2.28174">
        <ele>645</ele>
        <time>2024-09-12T19:00:57+00:00</time>
      </trkpt>
      <trkpt lat="45.41879" lon="2.2814">
        <ele>646</ele>
        <time>2024-09-12T19:01:00+00:00</time>
      </trkpt>
      <trkpt lat="45.41908" lon="2.28121">
        <ele>643</ele>
        <time>2024-09-12T19:01:03+00:00</time>
      </trkpt>
      <trkpt lat="45.41964" lon="2.28082">
        <ele>645</ele>
        <time>2024-09-12T19:01:06+00:00</time>
      </trkpt>
      <trkpt lat="45.41993" lon="2.28037">
        <ele>648</ele>
        <time>2024-09-12T19:01:09+00:00</time>
      </trkpt>
      <trkpt lat="45.41989" lon="2.28">
        <ele>650</ele>
        <time>2024-09-12T19:01:12+00:00</time>
      </trkpt>
      <trkpt lat="45.41984" lon="2.27955">
        <ele>650</ele>
        <time>2024-09-12T19:01:15+00:00</time>
      </trkpt>
      <trkpt lat="45.41981" lon="2.27916">
        <ele>650</ele>
        <time>2024-09-12T19:01:18+00:00</time>
      </trkpt>
      <trkpt lat="45.41976" lon="2.27861">
        <ele>654</ele>
        <time>2024-09-12T19:01:21+00:00</time>
      </trkpt>
      <trkpt lat="45.41938" lon="2.27824">
        <ele>656</ele>
        <time>2024-09-12T19:01:24+00:00</time>
      </trkpt>
      <trkpt lat="45.4193" lon="2.27782">
        <ele>654</ele>
        <time>2024-09-12T19:01:27+00:00</time>
      </trkpt>
      <trkpt lat="45.41923" lon="2.27742">
        <ele>653</ele>
        <time>2024-09-12T19:01:30+00:00</time>
      </trkpt>
      <trkpt lat="45.41911" lon="2.27679">
        <ele>642</ele>
        <time>2024-09-12T19:01:33+00:00</time>
      </trkpt>
      <trkpt lat="45.4191" lon="2.27645">
        <ele>640</ele>
        <time>2024-09-12T19:01:36+00:00</time>
      </trkpt>
      <trkpt lat="45.41908" lon="2.27611">
        <ele>638</ele>
        <time>2024-09-12T19:01:39+00:00</time>
      </trkpt>
      <trkpt lat="45.41914" lon="2.27567">
        <ele>632</ele>
        <time>2024-09-12T19:01:42+00:00</time>
      </trkpt>
      <trkpt lat="45.41921" lon="2.27523">
        <ele>630</ele>
        <time>2024-09-12T19:01:45+00:00</time>
      </trkpt>
      <trkpt lat="45.41927" lon="2.27477">
        <ele>629</ele>
        <time>2024-09-12T19:01:48+00:00</time>
      </trkpt>
      <trkpt lat="45.41897" lon="2.27498">
        <ele>628</ele>
        <time>2024-09-12T19:01:51+00:00</time>
      </trkpt>
      <trkpt lat="45.41868" lon="2.27519">
        <ele>628</ele>
        <time>2024-09-12T19:01:54+00:00</time>
      </trkpt>
      <trkpt lat="45.41827" lon="2.27547">
        <ele>629</ele>
        <time>2024-09-12T19:01:57+00:00</time>
      </trkpt>
      <trkpt lat="45.4178" lon="2.27552">
        <ele>629</ele>
        <time>2024-09-12T19:02:00+00:00</time>
      </trkpt>
      <trkpt lat="45.41756" lon="2.27532">
        <ele>627</ele>
        <time>2024-09-12T19:02:03+00:00</time>
      </trkpt>
      <trkpt lat="45.41721" lon="2.27504">
        <ele>629</ele>
        <time>2024-09-12T19:02:06+00:00</time>
      </trkpt>
      <trkpt lat="45.41691" lon="2.27493">
        <ele>629</ele>
        <time>2024-09-12T19:02:09+00:00</time>
      </trkpt>
      <trkpt lat="45.41638" lon="2.27475">
        <ele>626</ele>
        <time>2024-09-12T19:02:12+00:00</time>
      </trkpt>
      <trkpt lat="45.4161" lon="2.27463">
        <ele>623</ele>
        <time>2024-09-12T19:02:15+00:00</time>
      </trkpt>
      <trkpt lat="45.41563" lon="2.27444">
        <ele>615</ele>
        <time>2024-09-12T19:02:18+00:00</time>
      </trkpt>
      <trkpt lat="45.41536" lon="2.27464">
        <ele>612</ele>
        <time>2024-09-12T19:02:21+00:00</time>
      </trkpt>
      <trkpt lat="45.41485" lon="2.27502">
        <ele>606</ele>
        <time>2024-09-12T19:02:24+00:00</time>
      </trkpt>
      <trkpt lat="45.41463" lon="2.27512">
        <ele>606</ele>
        <time>2024-09-12T19:02:27+00:00</time>
      </trkpt>
      <trkpt lat="45.41444" lon="2.27497">
        <ele>607</ele>
        <time>2024-09-12T19:02:30+00:00</time>
      </trkpt>
      <trkpt lat="45.41419" lon="2.27485">
        <ele>608</ele>
        <time>2024-09-12T19:02:33+00:00</time>
      </trkpt>
      <trkpt lat="45.41399" lon="2.27467">
        <ele>608</ele>
        <time>2024-09-12T19:02:36+00:00</time>
      </trkpt>
      <trkpt lat="45.41379" lon="2.27455">
        <ele>607</ele>
        <time>2024-09-12T19:02:39+00:00</time>
      </trkpt>
      <trkpt lat="45.41368" lon="2.27478">
        <ele>607</ele>
        <time>2024-09-12T19:02:42+00:00</time>
      </trkpt>
      <trkpt lat="45.41355" lon="2.27418">
        <ele>607</ele>
        <time>2024-09-12T19:02:45+00:00</time>
      </trkpt>
      <trkpt lat="45.41346" lon="2.27385">
        <ele>605</ele>
        <time>2024-09-12T19:02:48+00:00</time>
      </trkpt>
      <trkpt lat="45.41336" lon="2.27349">
        <ele>604</ele>
        <time>2024-09-12T19:02:51+00:00</time>
      </trkpt>
      <trkpt lat="45.41347" lon="2.2731">
        <ele>602</ele>
        <time>2024-09-12T19:02:54+00:00</time>
      </trkpt>
      <trkpt lat="45.41362" lon="2.27285">
        <ele>600</ele>
        <time>2024-09-12T19:02:57+00:00</time>
      </trkpt>
      <trkpt lat="45.41351" lon="2.27225">
        <ele>598</ele>
        <time>2024-09-12T19:03:00+00:00</time>
      </trkpt>
      <trkpt lat="45.41354" lon="2.27179">
        <ele>598</ele>
        <time>2024-09-12T19:03:03+00:00</time>
      </trkpt>
      <trkpt lat="45.41382" lon="2.2714">
        <ele>595</ele>
        <time>2024-09-12T19:03:06+00:00</time>
      </trkpt>
      <trkpt lat="45.41425" lon="2.2712">
        <ele>596</ele>
        <time>2024-09-12T19:03:09+00:00</time>
      </trkpt>
      <trkpt lat="45.41464" lon="2.27105">
        <ele>594</ele>
        <time>2024-09-12T19:03:12+00:00</time>
      </trkpt>
      <trkpt lat="45.41488" lon="2.27099">
        <ele>596</ele>
        <time>2024-09-12T19:03:15+00:00</time>
      </trkpt>
      <trkpt lat="45.41512" lon="2.27093">
        <ele>598</ele>
        <time>2024-09-12T19:03:18+00:00</time>
      </trkpt>
      <trkpt lat="45.41551" lon="2.27109">
        <ele>607</ele>
        <time>2024-09-12T19:03:21+00:00</time>
      </trkpt>
      <trkpt lat="45.41581" lon="2.27117">
        <ele>618</ele>
        <time>2024-09-12T19:03:24+00:00</time>
      </trkpt>
      <trkpt lat="45.41619" lon="2.27137">
        <ele>618</ele>
        <time>2024-09-12T19:03:27+00:00</time>
      </trkpt>
      <trkpt lat="45.41656" lon="2.27161">
        <ele>613</ele>
        <time>2024-09-12T19:03:30+00:00</time>
      </trkpt>
      <trkpt lat="45.41692" lon="2.27186">
        <ele>612</ele>
        <time>2024-09-12T19:03:33+00:00</time>
      </trkpt>
      <trkpt lat="45.41729" lon="2.27211">
        <ele>612</ele>
        <time>2024-09-12T19:03:36+00:00</time>
      </trkpt>
      <trkpt lat="45.41765" lon="2.27235">
        <ele>610</ele>
        <time>2024-09-12T19:03:39+00:00</time>
      </trkpt>
      <trkpt lat="45.41801" lon="2.2726">
        <ele>601</ele>
        <time>2024-09-12T19:03:42+00:00</time>
      </trkpt>
      <trkpt lat="45.41837" lon="2.27287">
        <ele>599</ele>
        <time>2024-09-12T19:03:45+00:00</time>
      </trkpt>
      <trkpt lat="45.41859" lon="2.2729">
        <ele>596</ele>
        <time>2024-09-12T19:03:48+00:00</time>
      </trkpt>
      <trkpt lat="45.41895" lon="2.27281">
        <ele>596</ele>
        <time>2024-09-12T19:03:51+00:00</time>
      </trkpt>
      <trkpt lat="45.41923" lon="2.27258">
        <ele>596</ele>
        <time>2024-09-12T19:03:54+00:00</time>
      </trkpt>
      <trkpt lat="45.41953" lon="2.27212">
        <ele>596</ele>
        <time>2024-09-12T19:03:57+00:00</time>
      </trkpt>
      <trkpt lat="45.41984" lon="2.27202">
        <ele>595</ele>
        <time>2024-09-12T19:04:00+00:00</time>
      </trkpt>
      <trkpt lat="45.42013" lon="2.27174">
        <ele>595</ele>
        <time>2024-09-12T19:04:03+00:00</time>
      </trkpt>
      <trkpt lat="45.42053" lon="2.2717">
        <ele>602.3</ele>
        <time>2024-09-12T19:04:06+00:00</time>
      </trkpt>
      <trkpt lat="45.42068" lon="2.27121">
        <ele>596</ele>
        <time>2024-09-12T19:04:09+00:00</time>
      </trkpt>
      <trkpt lat="45.42074" lon="2.27064">
        <ele>610</ele>
        <time>2024-09-12T19:04:12+00:00</time>
      </trkpt>
      <trkpt lat="45.4208" lon="2.27008">
        <ele>613</ele>
        <time>2024-09-12T19:04:15+00:00</time>
      </trkpt>
      <trkpt lat="45.42062" lon="2.26954">
        <ele>604.1</ele>
        <time>2024-09-12T19:04:18+00:00</time>
      </trkpt>
      <trkpt lat="45.42061" lon="2.26883">
        <ele>601.4</ele>
        <time>2024-09-12T19:04:24+00:00</time>
      </trkpt>
      <trkpt lat="45.42083" lon="2.26824">
        <ele>605</ele>
        <time>2024-09-12T19:04:27+00:00</time>
      </trkpt>
      <trkpt lat="45.42088" lon="2.26786">
        <ele>598</ele>
        <time>2024-09-12T19:04:30+00:00</time>
      </trkpt>
      <trkpt lat="45.42094" lon="2.26737">
        <ele>597</ele>
        <time>2024-09-12T19:04:33+00:00</time>
      </trkpt>
      <trkpt lat="45.42119" lon="2.26731">
        <ele>597</ele>
        <time>2024-09-12T19:04:36+00:00</time>
      </trkpt>
      <trkpt lat="45.42147" lon="2.267">
        <ele>600.5</ele>
      </trkpt>
      <trkpt lat="45.42237" lon="2.26681">
        <ele>600.6</ele>
        <time>2024-09-12T19:04:48+00:00</time>
      </trkpt>
      <trkpt lat="45.42271" lon="2.2668">
        <ele>598</ele>
        <time>2024-09-12T19:04:51+00:00</time>
      </trkpt>
      <trkpt lat="45.42302" lon="2.26681">
        <ele>599</ele>
        <time>2024-09-12T19:04:54+00:00</time>
      </trkpt>
      <trkpt lat="45.42327" lon="2.26681">
        <ele>596</ele>
        <time>2024-09-12T19:04:57+00:00</time>
      </trkpt>
      <trkpt lat="45.42356" lon="2.26682">
        <ele>600</ele>
        <time>2024-09-12T19:05:00+00:00</time>
      </trkpt>
      <trkpt lat="45.42376" lon="2.26703">
        <ele>605</ele>
        <time>2024-09-12T19:05:03+00:00</time>
      </trkpt>
      <trkpt lat="45.42401" lon="2.26728">
        <ele>613</ele>
        <time>2024-09-12T19:05:06+00:00</time>
      </trkpt>
      <trkpt lat="45.42423" lon="2.26747">
        <ele>613</ele>
        <time>2024-09-12T19:05:09+00:00</time>
      </trkpt>
      <trkpt lat="45.42456" lon="2.26784">
        <ele>608.5</ele>
        <time>2024-09-12T19:05:12+00:00</time>
      </trkpt>
      <trkpt lat="45.42473" lon="2.26757">
        <ele>614</ele>
        <time>2024-09-12T19:05:15+00:00</time>
      </trkpt>
      <trkpt lat="45.42504" lon="2.26711">
        <ele>609</ele>
        <time>2024-09-12T19:05:21+00:00</time>
      </trkpt>
      <trkpt lat="45.42512" lon="2.26675">
        <ele>591</ele>
        <time>2024-09-12T19:05:24+00:00</time>
      </trkpt>
      <trkpt lat="45.42582" lon="2.26647">
        <ele>602.6</ele>
        <time>2024-09-12T19:05:27+00:00</time>
      </trkpt>
      <trkpt lat="45.42608" lon="2.26606">
        <ele>600.7</ele>
        <time>2024-09-12T19:05:30+00:00</time>
      </trkpt>
      <trkpt lat="45.42636" lon="2.26569">
        <ele>600.5</ele>
        <time>2024-09-12T19:05:33+00:00</time>
      </trkpt>
      <trkpt lat="45.42668" lon="2.26542">
        <ele>601.2</ele>
        <time>2024-09-12T19:05:36+00:00</time>
      </trkpt>
      <trkpt lat="45.4268" lon="2.26502">
        <ele>594</ele>
        <time>2024-09-12T19:05:39+00:00</time>
      </trkpt>
      <trkpt lat="45.42701" lon="2.26445">
        <ele>601.3</ele>
        <time>2024-09-12T19:05:42+00:00</time>
      </trkpt>
      <trkpt lat="45.42734" lon="2.26389">
        <ele>601.4</ele>
        <time>2024-09-12T19:05:45+00:00</time>
      </trkpt>
      <trkpt lat="45.42772" lon="2.26376">
        <ele>602.3</ele>
        <time>2024-09-12T19:05:48+00:00</time>
      </trkpt>
      <trkpt lat="45.4282" lon="2.2637">
        <ele>596</ele>
        <time>2024-09-12T19:05:51+00:00</time>
      </trkpt>
      <trkpt lat="45.42844" lon="2.26348">
        <ele>594</ele>
        <time>2024-09-12T19:05:54+00:00</time>
      </trkpt>
      <trkpt lat="45.42881" lon="2.26313">
        <ele>594</ele>
        <time>2024-09-12T19:05:57+00:00</time>
      </trkpt>
      <trkpt lat="45.42921" lon="2.26303">
        <ele>603</ele>
        <time>2024-09-12T19:06:00+00:00</time>
      </trkpt>
      <trkpt lat="45.42998" lon="2.26359">
        <ele>611</ele>
        <time>2024-09-12T19:06:09+00:00</time>
      </trkpt>
      <trkpt lat="45.43035" lon="2.26374">
        <ele>610.5</ele>
        <time>2024-09-12T19:06:15+00:00</time>
      </trkpt>
      <trkpt lat="45.43052" lon="2.26447">
        <ele>620.7</ele>
        <time>2024-09-12T19:06:18+00:00</time>
      </trkpt>
      <trkpt lat="45.43059" lon="2.26484">
        <ele>624.6</ele>
        <time>2024-09-12T19:06:21+00:00</time>
      </trkpt>
      <trkpt lat="45.43056" lon="2.26527">
        <ele>627</ele>
        <time>2024-09-12T19:06:24+00:00</time>
      </trkpt>
      <trkpt lat="45.43078" lon="2.26576">
        <ele>629</ele>
        <time>2024-09-12T19:06:27+00:00</time>
      </trkpt>
      <trkpt lat="45.43086" lon="2.26625">
        <ele>632</ele>
        <time>2024-09-12T19:06:30+00:00</time>
      </trkpt>
      <trkpt lat="45.43094" lon="2.26675">
        <ele>637</ele>
        <time>2024-09-12T19:06:33+00:00</time>
      </trkpt>
      <trkpt lat="45.43103" lon="2.26724">
        <ele>637</ele>
        <time>2024-09-12T19:06:36+00:00</time>
      </trkpt>
      <trkpt lat="45.43111" lon="2.26778">
        <ele>637</ele>
        <time>2024-09-12T19:06:39+00:00</time>
      </trkpt>
      <trkpt lat="45.43125" lon="2.26813">
        <ele>641</ele>
        <time>2024-09-12T19:06:42+00:00</time>
      </trkpt>
      <trkpt lat="45.43165" lon="2.26842">
        <ele>637.3</ele>
        <time>2024-09-12T19:06:45+00:00</time>
      </trkpt>
      <trkpt lat="45.43189" lon="2.26868">
        <ele>639</ele>
        <time>2024-09-12T19:06:48+00:00</time>
      </trkpt>
      <trkpt lat="45.43213" lon="2.26882">
        <ele>645</ele>
        <time>2024-09-12T19:06:51+00:00</time>
      </trkpt>
      <trkpt lat="45.43258" lon="2.26883">
        <ele>637.7</ele>
        <time>2024-09-12T19:06:54+00:00</time>
      </trkpt>
      <trkpt lat="45.43254" lon="2.26848">
        <ele>636.6</ele>
        <time>2024-09-12T19:06:57+00:00</time>
      </trkpt>
      <trkpt lat="45.43259" lon="2.2679">
        <ele>634</ele>
        <time>2024-09-12T19:07:00+00:00</time>
      </trkpt>
      <trkpt lat="45.43269" lon="2.26732">
        <ele>628</ele>
        <time>2024-09-12T19:07:03+00:00</time>
      </trkpt>
      <trkpt lat="45.43281" lon="2.267">
        <ele>622</ele>
        <time>2024-09-12T19:07:06+00:00</time>
      </trkpt>
      <trkpt lat="45.43316" lon="2.267">
        <ele>624</ele>
        <time>2024-09-12T19:07:09+00:00</time>
      </trkpt>
      <trkpt lat="45.43327" lon="2.26659">
        <ele>624</ele>
        <time>2024-09-12T19:07:12+00:00</time>
      </trkpt>
      <trkpt lat="45.4335" lon="2.26613">
        <ele>626.4</ele>
        <time>2024-09-12T19:07:15+00:00</time>
      </trkpt>
      <trkpt lat="45.43351" lon="2.26579">
        <ele>628.1</ele>
        <time>2024-09-12T19:07:18+00:00</time>
      </trkpt>
      <trkpt lat="45.43352" lon="2.26563">
        <ele>629.6</ele>
      </trkpt>
      <trkpt lat="45.43345" lon="2.26517">
        <ele>630</ele>
        <time>2024-09-12T19:07:21+00:00</time>
      </trkpt>
      <trkpt lat="45.43349" lon="2.26466">
        <ele>634</ele>
        <time>2024-09-12T19:07:24+00:00</time>
      </trkpt>
      <trkpt lat="45.43357" lon="2.26424">
        <ele>634</ele>
        <time>2024-09-12T19:07:27+00:00</time>
      </trkpt>
      <trkpt lat="45.43364" lon="2.26387">
        <ele>635</ele>
        <time>2024-09-12T19:07:30+00:00</time>
      </trkpt>
      <trkpt lat="45.43372" lon="2.26342">
        <ele>636</ele>
        <time>2024-09-12T19:07:33+00:00</time>
      </trkpt>
      <trkpt lat="45.43385" lon="2.26374">
        <ele>637</ele>
        <time>2024-09-12T19:07:36+00:00</time>
      </trkpt>
      <trkpt lat="45.43406" lon="2.26432">
        <ele>641</ele>
        <time>2024-09-12T19:07:39+00:00</time>
      </trkpt>
      <trkpt lat="45.43405" lon="2.26477">
        <ele>643</ele>
        <time>2024-09-12T19:07:42+00:00</time>
      </trkpt>
      <trkpt lat="45.43421" lon="2.26513">
        <ele>643</ele>
        <time>2024-09-12T19:07:45+00:00</time>
      </trkpt>
      <trkpt lat="45.43434" lon="2.26543">
        <ele>643</ele>
        <time>2024-09-12T19:07:48+00:00</time>
      </trkpt>
      <trkpt lat="45.43449" lon="2.26576">
        <ele>643</ele>
        <time>2024-09-12T19:07:51+00:00</time>
      </trkpt>
      <trkpt lat="45.43455" lon="2.26624">
        <ele>643</ele>
        <time>2024-09-12T19:07:54+00:00</time>
      </trkpt>
      <trkpt lat="45.43461" lon="2.26672">
        <ele>646</ele>
        <time>2024-09-12T19:07:57+00:00</time>
      </trkpt>
      <trkpt lat="45.43465" lon="2.26709">
        <ele>649</ele>
        <time>2024-09-12T19:08:00+00:00</time>
      </trkpt>
      <trkpt lat="45.43471" lon="2.26754">
        <ele>655</ele>
        <time>2024-09-12T19:08:03+00:00</time>
      </trkpt>
      <trkpt lat="45.43479" lon="2.26798">
        <ele>659</ele>
        <time>2024-09-12T19:08:06+00:00</time>
      </trkpt>
      <trkpt lat="45.43487" lon="2.26842">
        <ele>666</ele>
        <time>2024-09-12T19:08:09+00:00</time>
      </trkpt>
      <trkpt lat="45.43513" lon="2.26906">
        <ele>656.6</ele>
        <time>2024-09-12T19:08:12+00:00</time>
      </trkpt>
      <trkpt lat="45.4354" lon="2.26895">
        <ele>654.8</ele>
        <time>2024-09-12T19:08:15+00:00</time>
      </trkpt>
      <trkpt lat="45.43562" lon="2.26869">
        <ele>651</ele>
        <time>2024-09-12T19:08:18+00:00</time>
      </trkpt>
      <trkpt lat="45.43574" lon="2.26858">
        <ele>648</ele>
        <time>2024-09-12T19:08:21+00:00</time>
      </trkpt>
      <trkpt lat="45.43604" lon="2.26861">
        <ele>648</ele>
        <time>2024-09-12T19:08:24+00:00</time>
      </trkpt>
      <trkpt lat="45.43617" lon="2.26871">
        <ele>642.9</ele>
        <time>2024-09-12T19:08:27+00:00</time>
      </trkpt>
      <trkpt lat="45.43632" lon="2.26812">
        <ele>642</ele>
        <time>2024-09-12T19:08:30+00:00</time>
      </trkpt>
      <trkpt lat="45.43635" lon="2.26772">
        <ele>642.2</ele>
        <time>2024-09-12T19:08:33+00:00</time>
      </trkpt>
      <trkpt lat="45.43706" lon="2.26766">
        <ele>645.3</ele>
        <time>2024-09-12T19:08:36+00:00</time>
      </trkpt>
      <trkpt lat="45.43756" lon="2.26767">
        <ele>645</ele>
        <time>2024-09-12T19:08:39+00:00</time>
      </trkpt>
      <trkpt lat="45.4375" lon="2.26745">
        <ele>658</ele>
        <time>2024-09-12T19:08:42+00:00</time>
      </trkpt>
      <trkpt lat="45.43743" lon="2.2669">
        <ele>644.7</ele>
        <time>2024-09-12T19:08:45+00:00</time>
      </trkpt>
      <trkpt lat="45.43752" lon="2.26616">
        <ele>649.1</ele>
        <time>2024-09-12T19:08:48+00:00</time>
      </trkpt>
      <trkpt lat="45.4381" lon="2.26581">
        <ele>653.9</ele>
      </trkpt>
      <trkpt lat="45.43851" lon="2.26564">
        <ele>649.8</ele>
        <time>2024-09-12T19:08:51+00:00</time>
      </trkpt>
      <trkpt lat="45.43875" lon="2.26724">
        <ele>657</ele>
        <time>2024-09-12T19:08:54+00:00</time>
      </trkpt>
      <trkpt lat="45.43882" lon="2.26781">
        <ele>660.7</ele>
        <time>2024-09-12T19:08:57+00:00</time>
      </trkpt>
      <trkpt lat="45.43887" lon="2.26832">
        <ele>664.8</ele>
        <time>2024-09-12T19:09:00+00:00</time>
      </trkpt>
      <trkpt lat="45.43912" lon="2.26947">
        <ele>670.7</ele>
        <time>2024-09-12T19:09:09+00:00</time>
      </trkpt>
      <trkpt lat="45.43924" lon="2.26997">
        <ele>681</ele>
        <time>2024-09-12T19:09:12+00:00</time>
      </trkpt>
      <trkpt lat="45.43943" lon="2.27045">
        <ele>681</ele>
        <time>2024-09-12T19:09:15+00:00</time>
      </trkpt>
      <trkpt lat="45.43962" lon="2.27092">
        <ele>677</ele>
        <time>2024-09-12T19:09:18+00:00</time>
      </trkpt>
      <trkpt lat="45.43993" lon="2.27148">
        <ele>672.7</ele>
        <time>2024-09-12T19:09:21+00:00</time>
      </trkpt>
      <trkpt lat="45.44014" lon="2.27134">
        <ele>673</ele>
        <time>2024-09-12T19:09:24+00:00</time>
      </trkpt>
      <trkpt lat="45.44038" lon="2.2712">
        <ele>672</ele>
        <time>2024-09-12T19:09:27+00:00</time>
      </trkpt>
      <trkpt lat="45.4407" lon="2.27102">
        <ele>672</ele>
        <time>2024-09-12T19:09:30+00:00</time>
      </trkpt>
      <trkpt lat="45.44096" lon="2.2708">
        <ele>673</ele>
        <time>2024-09-12T19:09:33+00:00</time>
      </trkpt>
      <trkpt lat="45.44118" lon="2.27061">
        <ele>669</ele>
        <time>2024-09-12T19:09:36+00:00</time>
      </trkpt>
      <trkpt lat="45.44141" lon="2.27041">
        <ele>669</ele>
        <time>2024-09-12T19:09:39+00:00</time>
      </trkpt>
      <trkpt lat="45.44174" lon="2.27016">
        <ele>669</ele>
        <time>2024-09-12T19:09:42+00:00</time>
      </trkpt>
      <trkpt lat="45.44205" lon="2.27016">
        <ele>673</ele>
        <time>2024-09-12T19:09:45+00:00</time>
      </trkpt>
      <trkpt lat="45.44231" lon="2.27017">
        <ele>673</ele>
        <time>2024-09-12T19:09:48+00:00</time>
      </trkpt>
      <trkpt lat="45.44262" lon="2.27018">
        <ele>671</ele>
        <time>2024-09-12T19:09:51+00:00</time>
      </trkpt>
      <trkpt lat="45.44297" lon="2.27016">
        <ele>669</ele>
        <time>2024-09-12T19:09:54+00:00</time>
      </trkpt>
      <trkpt lat="45.44331" lon="2.27015">
        <ele>670</ele>
        <time>2024-09-12T19:09:57+00:00</time>
      </trkpt>
      <trkpt lat="45.44359" lon="2.27013">
        <ele>669</ele>
        <time>2024-09-12T19:10:00+00:00</time>
      </trkpt>
      <trkpt lat="45.44396" lon="2.27011">
        <ele>669</ele>
        <time>2024-09-12T19:10:03+00:00</time>
      </trkpt>
      <trkpt lat="45.44424" lon="2.27004">
        <ele>673</ele>
        <time>2024-09-12T19:10:06+00:00</time>
      </trkpt>
      <trkpt lat="45.44471" lon="2.26992">
        <ele>670</ele>
        <time>2024-09-12T19:10:09+00:00</time>
      </trkpt>
      <trkpt lat="45.44496" lon="2.26972">
        <ele>667</ele>
        <time>2024-09-12T19:10:12+00:00</time>
      </trkpt>
      <trkpt lat="45.44536" lon="2.26941">
        <ele>660</ele>
        <time>2024-09-12T19:10:15+00:00</time>
      </trkpt>
      <trkpt lat="45.44554" lon="2.26919">
        <ele>660</ele>
        <time>2024-09-12T19:10:18+00:00</time>
      </trkpt>
      <trkpt lat="45.44574" lon="2.26895">
        <ele>660</ele>
        <time>2024-09-12T19:10:21+00:00</time>
      </trkpt>
      <trkpt lat="45.44601" lon="2.26844">
        <ele>664</ele>
        <time>2024-09-12T19:10:24+00:00</time>
      </trkpt>
      <trkpt lat="45.44616" lon="2.26814">
        <ele>665</ele>
        <time>2024-09-12T19:10:27+00:00</time>
      </trkpt>
      <trkpt lat="45.44622" lon="2.26773">
        <ele>667</ele>
        <time>2024-09-12T19:10:30+00:00</time>
      </trkpt>
      <trkpt lat="45.44624" lon="2.26714">
        <ele>678</ele>
        <time>2024-09-12T19:10:33+00:00</time>
      </trkpt>
      <trkpt lat="45.44597" lon="2.26683">
        <ele>681</ele>
        <time>2024-09-12T19:10:36+00:00</time>
      </trkpt>
      <trkpt lat="45.44581" lon="2.26657">
        <ele>682</ele>
        <time>2024-09-12T19:10:39+00:00</time>
      </trkpt>
      <trkpt lat="45.44565" lon="2.26629">
        <ele>682</ele>
        <time>2024-09-12T19:10:42+00:00</time>
      </trkpt>
      <trkpt lat="45.44536" lon="2.26603">
        <ele>673.7</ele>
        <time>2024-09-12T19:10:45+00:00</time>
      </trkpt>
      <trkpt lat="45.44512" lon="2.26558">
        <ele>673</ele>
        <time>2024-09-12T19:10:48+00:00</time>
      </trkpt>
      <trkpt lat="45.44506" lon="2.2653">
        <ele>680</ele>
        <time>2024-09-12T19:10:51+00:00</time>
      </trkpt>
      <trkpt lat="45.44492" lon="2.26509">
        <ele>677</ele>
        <time>2024-09-12T19:10:54+00:00</time>
      </trkpt>
      <trkpt lat="45.44484" lon="2.26473">
        <ele>676</ele>
        <time>2024-09-12T19:10:57+00:00</time>
      </trkpt>
      <trkpt lat="45.44474" lon="2.26428">
        <ele>672</ele>
        <time>2024-09-12T19:11:00+00:00</time>
      </trkpt>
      <trkpt lat="45.44462" lon="2.26378">
        <ele>669</ele>
        <time>2024-09-12T19:11:03+00:00</time>
      </trkpt>
      <trkpt lat="45.44449" lon="2.26328">
        <ele>665</ele>
        <time>2024-09-12T19:11:06+00:00</time>
      </trkpt>
      <trkpt lat="45.44437" lon="2.26278">
        <ele>656</ele>
        <time>2024-09-12T19:11:09+00:00</time>
      </trkpt>
      <trkpt lat="45.44428" lon="2.26242">
        <ele>654</ele>
        <time>2024-09-12T19:11:12+00:00</time>
      </trkpt>
      <trkpt lat="45.44417" lon="2.26196">
        <ele>654</ele>
        <time>2024-09-12T19:11:15+00:00</time>
      </trkpt>
      <trkpt lat="45.44411" lon="2.26146">
        <ele>653</ele>
        <time>2024-09-12T19:11:18+00:00</time>
      </trkpt>
      <trkpt lat="45.44382" lon="2.26119">
        <ele>636.9</ele>
        <time>2024-09-12T19:11:21+00:00</time>
      </trkpt>
      <trkpt lat="45.44341" lon="2.26083">
        <ele>631.8</ele>
        <time>2024-09-12T19:11:24+00:00</time>
      </trkpt>
      <trkpt lat="45.4432" lon="2.26033">
        <ele>627.3</ele>
        <time>2024-09-12T19:11:27+00:00</time>
      </trkpt>
      <trkpt lat="45.44329" lon="2.26004">
        <ele>625.2</ele>
        <time>2024-09-12T19:11:30+00:00</time>
      </trkpt>
      <trkpt lat="45.44339" lon="2.25952">
        <ele>612</ele>
        <time>2024-09-12T19:11:33+00:00</time>
      </trkpt>
      <trkpt lat="45.44361" lon="2.2593">
        <ele>608</ele>
        <time>2024-09-12T19:11:36+00:00</time>
      </trkpt>
      <trkpt lat="45.44386" lon="2.25926">
        <ele>605</ele>
        <time>2024-09-12T19:11:39+00:00</time>
      </trkpt>
      <trkpt lat="45.44416" lon="2.25922">
        <ele>604</ele>
        <time>2024-09-12T19:11:42+00:00</time>
      </trkpt>
      <trkpt lat="45.44435" lon="2.25884">
        <ele>603</ele>
        <time>2024-09-12T19:11:45+00:00</time>
      </trkpt>
      <trkpt lat="45.44454" lon="2.25846">
        <ele>603</ele>
        <time>2024-09-12T19:11:48+00:00</time>
      </trkpt>
      <trkpt lat="45.44466" lon="2.25797">
        <ele>611.7</ele>
        <time>2024-09-12T19:11:51+00:00</time>
      </trkpt>
      <trkpt lat="45.44503" lon="2.25771">
        <ele>609</ele>
        <time>2024-09-12T19:11:54+00:00</time>
      </trkpt>
      <trkpt lat="45.44509" lon="2.25735">
        <ele>614</ele>
        <time>2024-09-12T19:11:57+00:00</time>
      </trkpt>
      <trkpt lat="45.44516" lon="2.25692">
        <ele>618</ele>
        <time>2024-09-12T19:12:00+00:00</time>
      </trkpt>
      <trkpt lat="45.44521" lon="2.25649">
        <ele>625</ele>
        <time>2024-09-12T19:12:03+00:00</time>
      </trkpt>
      <trkpt lat="45.44525" lon="2.25614">
        <ele>633</ele>
        <time>2024-09-12T19:12:06+00:00</time>
      </trkpt>
      <trkpt lat="45.4453" lon="2.25574">
        <ele>631</ele>
        <time>2024-09-12T19:12:09+00:00</time>
      </trkpt>
      <trkpt lat="45.44528" lon="2.25528">
        <ele>629</ele>
        <time>2024-09-12T19:12:12+00:00</time>
      </trkpt>
      <trkpt lat="45.44526" lon="2.25483">
        <ele>627</ele>
        <time>2024-09-12T19:12:15+00:00</time>
      </trkpt>
      <trkpt lat="45.44524" lon="2.25434">
        <ele>627</ele>
        <time>2024-09-12T19:12:18+00:00</time>
      </trkpt>
      <trkpt lat="45.44524" lon="2.254">
        <ele>627</ele>
        <time>2024-09-12T19:12:21+00:00</time>
      </trkpt>
      <trkpt lat="45.44525" lon="2.25366">
        <ele>629</ele>
        <time>2024-09-12T19:12:24+00:00</time>
      </trkpt>
      <trkpt lat="45.44536" lon="2.25308">
        <ele>638</ele>
        <time>2024-09-12T19:12:27+00:00</time>
      </trkpt>
      <trkpt lat="45.44515" lon="2.2526">
        <ele>650</ele>
        <time>2024-09-12T19:12:30+00:00</time>
      </trkpt>
      <trkpt lat="45.44502" lon="2.25224">
        <ele>651</ele>
        <time>2024-09-12T19:12:33+00:00</time>
      </trkpt>
      <trkpt lat="45.44483" lon="2.25168">
        <ele>654</ele>
        <time>2024-09-12T19:12:36+00:00</time>
      </trkpt>
      <trkpt lat="45.44465" lon="2.25141">
        <ele>655</ele>
        <time>2024-09-12T19:12:39+00:00</time>
      </trkpt>
      <trkpt lat="45.44442" lon="2.25106">
        <ele>654</ele>
        <time>2024-09-12T19:12:42+00:00</time>
      </trkpt>
      <trkpt lat="45.44439" lon="2.25065">
        <ele>653</ele>
        <time>2024-09-12T19:12:45+00:00</time>
      </trkpt>
      <trkpt lat="45.44435" lon="2.25003">
        <ele>649</ele>
        <time>2024-09-12T19:12:48+00:00</time>
      </trkpt>
      <trkpt lat="45.44443" lon="2.2496">
        <ele>649</ele>
        <time>2024-09-12T19:12:51+00:00</time>
      </trkpt>
      <trkpt lat="45.44451" lon="2.24923">
        <ele>651</ele>
        <time>2024-09-12T19:12:54+00:00</time>
      </trkpt>
      <trkpt lat="45.4446" lon="2.24874">
        <ele>654</ele>
        <time>2024-09-12T19:12:57+00:00</time>
      </trkpt>
      <trkpt lat="45.44451" lon="2.24825">
        <ele>658</ele>
        <time>2024-09-12T19:13:00+00:00</time>
      </trkpt>
      <trkpt lat="45.44425" lon="2.24804">
        <ele>661</ele>
        <time>2024-09-12T19:13:03+00:00</time>
      </trkpt>
      <trkpt lat="45.44402" lon="2.24786">
        <ele>664</ele>
        <time>2024-09-12T19:13:06+00:00</time>
      </trkpt>
      <trkpt lat="45.44376" lon="2.24765">
        <ele>664</ele>
        <time>2024-09-12T19:13:09+00:00</time>
      </trkpt>
      <trkpt lat="45.44349" lon="2.24755">
        <ele>664</ele>
        <time>2024-09-12T19:13:12+00:00</time>
      </trkpt>
      <trkpt lat="45.44313" lon="2.24741">
        <ele>660</ele>
        <time>2024-09-12T19:13:15+00:00</time>
      </trkpt>
      <trkpt lat="45.44277" lon="2.24737">
        <ele>648</ele>
        <time>2024-09-12T19:13:18+00:00</time>
      </trkpt>
      <trkpt lat="45.44251" lon="2.24771">
        <ele>643</ele>
        <time>2024-09-12T19:13:21+00:00</time>
      </trkpt>
      <trkpt lat="45.44222" lon="2.24767">
        <ele>643</ele>
        <time>2024-09-12T19:13:24+00:00</time>
      </trkpt>
      <trkpt lat="45.44186" lon="2.24752">
        <ele>641</ele>
        <time>2024-09-12T19:13:27+00:00</time>
      </trkpt>
      <trkpt lat="45.44165" lon="2.24729">
        <ele>641</ele>
        <time>2024-09-12T19:13:30+00:00</time>
      </trkpt>
      <trkpt lat="45.44135" lon="2.24698">
        <ele>642</ele>
        <time>2024-09-12T19:13:33+00:00</time>
      </trkpt>
      <trkpt lat="45.44107" lon="2.24651">
        <ele>643</ele>
        <time>2024-09-12T19:13:36+00:00</time>
      </trkpt>
      <trkpt lat="45.44079" lon="2.24656">
        <ele>642</ele>
        <time>2024-09-12T19:13:39+00:00</time>
      </trkpt>
      <trkpt lat="45.44042" lon="2.24662">
        <ele>642</ele>
        <time>2024-09-12T19:13:42+00:00</time>
      </trkpt>
      <trkpt lat="45.44013" lon="2.24659">
        <ele>648</ele>
        <time>2024-09-12T19:13:45+00:00</time>
      </trkpt>
      <trkpt lat="45.43989" lon="2.24656">
        <ele>649</ele>
        <time>2024-09-12T19:13:48+00:00</time>
      </trkpt>
      <trkpt lat="45.43965" lon="2.24653">
        <ele>649</ele>
        <time>2024-09-12T19:13:51+00:00</time>
      </trkpt>
      <trkpt lat="45.4394" lon="2.24659">
        <ele>650</ele>
        <time>2024-09-12T19:13:54+00:00</time>
      </trkpt>
      <trkpt lat="45.43912" lon="2.24666">
        <ele>652</ele>
        <time>2024-09-12T19:13:57+00:00</time>
      </trkpt>
      <trkpt lat="45.43882" lon="2.24675">
        <ele>655</ele>
        <time>2024-09-12T19:14:00+00:00</time>
      </trkpt>
      <trkpt lat="45.43858" lon="2.24667">
        <ele>654</ele>
        <time>2024-09-12T19:14:03+00:00</time>
      </trkpt>
      <trkpt lat="45.43824" lon="2.24673">
        <ele>657.1</ele>
        <time>2024-09-12T19:14:06+00:00</time>
      </trkpt>
      <trkpt lat="45.43802" lon="2.24654">
        <ele>653</ele>
        <time>2024-09-12T19:14:09+00:00</time>
      </trkpt>
      <trkpt lat="45.43765" lon="2.24649">
        <ele>657</ele>
        <time>2024-09-12T19:14:12+00:00</time>
      </trkpt>
      <trkpt lat="45.43741" lon="2.24633">
        <ele>657</ele>
        <time>2024-09-12T19:14:15+00:00</time>
      </trkpt>
      <trkpt lat="45.43712" lon="2.24612">
        <ele>655</ele>
        <time>2024-09-12T19:14:18+00:00</time>
      </trkpt>
      <trkpt lat="45.43686" lon="2.24607">
        <ele>655</ele>
        <time>2024-09-12T19:14:21+00:00</time>
      </trkpt>
      <trkpt lat="45.43653" lon="2.246">
        <ele>655</ele>
        <time>2024-09-12T19:14:24+00:00</time>
      </trkpt>
      <trkpt lat="45.43611" lon="2.2463">
        <ele>655</ele>
        <time>2024-09-12T19:14:27+00:00</time>
      </trkpt>
      <trkpt lat="45.43598" lon="2.24664">
        <ele>655</ele>
        <time>2024-09-12T19:14:30+00:00</time>
      </trkpt>
      <trkpt lat="45.43572" lon="2.24682">
        <ele>655</ele>
        <time>2024-09-12T19:14:33+00:00</time>
      </trkpt>
      <trkpt lat="45.43545" lon="2.24721">
        <ele>661.7</ele>
        <time>2024-09-12T19:14:36+00:00</time>
      </trkpt>
      <trkpt lat="45.43522" lon="2.24749">
        <ele>666.1</ele>
        <time>2024-09-12T19:14:39+00:00</time>
      </trkpt>
      <trkpt lat="45.43489" lon="2.24788">
        <ele>671</ele>
        <time>2024-09-12T19:14:42+00:00</time>
      </trkpt>
      <trkpt lat="45.43464" lon="2.2481">
        <ele>672</ele>
        <time>2024-09-12T19:14:45+00:00</time>
      </trkpt>
      <trkpt lat="45.43425" lon="2.24856">
        <ele>676.6</ele>
        <time>2024-09-12T19:14:48+00:00</time>
      </trkpt>
      <trkpt lat="45.43427" lon="2.24881">
        <ele>674</ele>
        <time>2024-09-12T19:14:51+00:00</time>
      </trkpt>
      <trkpt lat="45.43429" lon="2.24928">
        <ele>675</ele>
        <time>2024-09-12T19:14:54+00:00</time>
      </trkpt>
      <trkpt lat="45.43428" lon="2.24966">
        <ele>680</ele>
        <time>2024-09-12T19:14:57+00:00</time>
      </trkpt>
      <trkpt lat="45.43426" lon="2.25014">
        <ele>681</ele>
        <time>2024-09-12T19:15:00+00:00</time>
      </trkpt>
      <trkpt lat="45.43412" lon="2.25063">
        <ele>679</ele>
        <time>2024-09-12T19:15:03+00:00</time>
      </trkpt>
      <trkpt lat="45.43392" lon="2.25085">
        <ele>678</ele>
        <time>2024-09-12T19:15:06+00:00</time>
      </trkpt>
      <trkpt lat="45.43367" lon="2.2511">
        <ele>678</ele>
        <time>2024-09-12T19:15:09+00:00</time>
      </trkpt>
      <trkpt lat="45.43339" lon="2.2514">
        <ele>687</ele>
        <time>2024-09-12T19:15:12+00:00</time>
      </trkpt>
      <trkpt lat="45.43312" lon="2.25145">
        <ele>685</ele>
        <time>2024-09-12T19:15:15+00:00</time>
      </trkpt>
      <trkpt lat="45.43275" lon="2.25151">
        <ele>684</ele>
        <time>2024-09-12T19:15:18+00:00</time>
      </trkpt>
      <trkpt lat="45.43251" lon="2.25133">
        <ele>684</ele>
        <time>2024-09-12T19:15:21+00:00</time>
      </trkpt>
      <trkpt lat="45.43215" lon="2.25108">
        <ele>684</ele>
        <time>2024-09-12T19:15:24+00:00</time>
      </trkpt>
      <trkpt lat="45.43195" lon="2.25089">
        <ele>686</ele>
        <time>2024-09-12T19:15:27+00:00</time>
      </trkpt>
      <trkpt lat="45.43173" lon="2.25069">
        <ele>689</ele>
        <time>2024-09-12T19:15:30+00:00</time>
      </trkpt>
      <trkpt lat="45.43139" lon="2.25062">
        <ele>689</ele>
        <time>2024-09-12T19:15:33+00:00</time>
      </trkpt>
      <trkpt lat="45.43106" lon="2.25054">
        <ele>689</ele>
        <time>2024-09-12T19:15:36+00:00</time>
      </trkpt>
      <trkpt lat="45.43081" lon="2.25048">
        <ele>689</ele>
        <time>2024-09-12T19:15:39+00:00</time>
      </trkpt>
      <trkpt lat="45.43053" lon="2.25042">
        <ele>688</ele>
        <time>2024-09-12T19:15:42+00:00</time>
      </trkpt>
      <trkpt lat="45.43021" lon="2.25047">
        <ele>687</ele>
        <time>2024-09-12T19:15:45+00:00</time>
      </trkpt>
      <trkpt lat="45.42995" lon="2.25052">
        <ele>684</ele>
        <time>2024-09-12T19:15:48+00:00</time>
      </trkpt>
      <trkpt lat="45.42959" lon="2.25059">
        <ele>672</ele>
        <time>2024-09-12T19:15:51+00:00</time>
      </trkpt>
      <trkpt lat="45.42932" lon="2.25076">
        <ele>669</ele>
        <time>2024-09-12T19:15:54+00:00</time>
      </trkpt>
      <trkpt lat="45.42909" lon="2.25091">
        <ele>667</ele>
        <time>2024-09-12T19:15:57+00:00</time>
      </trkpt>
      <trkpt lat="45.42882" lon="2.25108">
        <ele>665</ele>
        <time>2024-09-12T19:16:00+00:00</time>
      </trkpt>
      <trkpt lat="45.42862" lon="2.2514">
        <ele>664</ele>
        <time>2024-09-12T19:16:03+00:00</time>
      </trkpt>
      <trkpt lat="45.42846" lon="2.25166">
        <ele>664</ele>
        <time>2024-09-12T19:16:06+00:00</time>
      </trkpt>
      <trkpt lat="45.42828" lon="2.25194">
        <ele>664</ele>
        <time>2024-09-12T19:16:09+00:00</time>
      </trkpt>
      <trkpt lat="45.42794" lon="2.25243">
        <ele>654.9</ele>
        <time>2024-09-12T19:16:12+00:00</time>
      </trkpt>
      <trkpt lat="45.42807" lon="2.25291">
        <ele>651.7</ele>
        <time>2024-09-12T19:16:15+00:00</time>
      </trkpt>
      <trkpt lat="45.4283" lon="2.25323">
        <ele>662</ele>
        <time>2024-09-12T19:16:18+00:00</time>
      </trkpt>
      <trkpt lat="45.42855" lon="2.25368">
        <ele>662</ele>
        <time>2024-09-12T19:16:21+00:00</time>
      </trkpt>
      <trkpt lat="45.42892" lon="2.25394">
        <ele>652.1</ele>
        <time>2024-09-12T19:16:24+00:00</time>
      </trkpt>
      <trkpt lat="45.42916" lon="2.25446">
        <ele>652.9</ele>
        <time>2024-09-12T19:16:27+00:00</time>
      </trkpt>
      <trkpt lat="45.42919" lon="2.25486">
        <ele>658</ele>
        <time>2024-09-12T19:16:30+00:00</time>
      </trkpt>
      <trkpt lat="45.42932" lon="2.25519">
        <ele>657</ele>
        <time>2024-09-12T19:16:33+00:00</time>
      </trkpt>
      <trkpt lat="45.42949" lon="2.25561">
        <ele>660</ele>
        <time>2024-09-12T19:16:36+00:00</time>
      </trkpt>
      <trkpt lat="45.42965" lon="2.25595">
        <ele>661</ele>
        <time>2024-09-12T19:16:39+00:00</time>
      </trkpt>
      <trkpt lat="45.42979" lon="2.25623">
        <ele>662</ele>
        <time>2024-09-12T19:16:42+00:00</time>
      </trkpt>
      <trkpt lat="45.4298" lon="2.25658">
        <ele>649.5</ele>
        <time>2024-09-12T19:16:45+00:00</time>
      </trkpt>
      <trkpt lat="45.42997" lon="2.25702">
        <ele>649</ele>
        <time>2024-09-12T19:16:48+00:00</time>
      </trkpt>
      <trkpt lat="45.43016" lon="2.25743">
        <ele>653</ele>
        <time>2024-09-12T19:16:51+00:00</time>
      </trkpt>
      <trkpt lat="45.42993" lon="2.25772">
        <ele>643.6</ele>
        <time>2024-09-12T19:16:54+00:00</time>
      </trkpt>
      <trkpt lat="45.42964" lon="2.2578">
        <ele>642</ele>
        <time>2024-09-12T19:16:57+00:00</time>
      </trkpt>
      <trkpt lat="45.42955" lon="2.25812">
        <ele>635</ele>
        <time>2024-09-12T19:17:00+00:00</time>
      </trkpt>
      <trkpt lat="45.42925" lon="2.25814">
        <ele>629</ele>
        <time>2024-09-12T19:17:03+00:00</time>
      </trkpt>
      <trkpt lat="45.42902" lon="2.25854">
        <ele>622.6</ele>
        <time>2024-09-12T19:17:06+00:00</time>
      </trkpt>
      <trkpt lat="45.42883" lon="2.25876">
        <ele>625</ele>
        <time>2024-09-12T19:17:09+00:00</time>
      </trkpt>
      <trkpt lat="45.42848" lon="2.25875">
        <ele>625</ele>
        <time>2024-09-12T19:17:12+00:00</time>
      </trkpt>
      <trkpt lat="45.42816" lon="2.25847">
        <ele>627.6</ele>
      </trkpt>
      <trkpt lat="45.42809" lon="2.25839">
        <ele>632</ele>
        <time>2024-09-12T19:17:18+00:00</time>
      </trkpt>
      <trkpt lat="45.42786" lon="2.25872">
        <ele>633</ele>
        <time>2024-09-12T19:17:21+00:00</time>
      </trkpt>
      <trkpt lat="45.4278" lon="2.25917">
        <ele>625.6</ele>
        <time>2024-09-12T19:17:24+00:00</time>
      </trkpt>
      <trkpt lat="45.42779" lon="2.25975">
        <ele>624.5</ele>
      </trkpt>
      <trkpt lat="45.42778" lon="2.26026">
        <ele>622.1</ele>
        <time>2024-09-12T19:17:30+00:00</time>
      </trkpt>
      <trkpt lat="45.42754" lon="2.26086">
        <ele>618.8</ele>
      </trkpt>
      <trkpt lat="45.42697" lon="2.26067">
        <ele>623.7</ele>
        <time>2024-09-12T19:17:36+00:00</time>
      </trkpt>
      <trkpt lat="45.42657" lon="2.26047">
        <ele>624.6</ele>
      </trkpt>
      <trkpt lat="45.42626" lon="2.26009">
        <ele>627.7</ele>
        <time>2024-09-12T19:17:39+00:00</time>
      </trkpt>
      <trkpt lat="45.42601" lon="2.25983">
        <ele>628.3</ele>
        <time>2024-09-12T19:17:42+00:00</time>
      </trkpt>
      <trkpt lat="45.42573" lon="2.25947">
        <ele>629.8</ele>
        <time>2024-09-12T19:17:45+00:00</time>
      </trkpt>
      <trkpt lat="45.42563" lon="2.26039">
        <ele>627</ele>
        <time>2024-09-12T19:17:48+00:00</time>
      </trkpt>
      <trkpt lat="45.4259" lon="2.26074">
        <ele>626</ele>
        <time>2024-09-12T19:17:51+00:00</time>
      </trkpt>
      <trkpt lat="45.42601" lon="2.26109">
        <ele>622</ele>
        <time>2024-09-12T19:17:54+00:00</time>
      </trkpt>
      <trkpt lat="45.42616" lon="2.26157">
        <ele>613</ele>
        <time>2024-09-12T19:17:57+00:00</time>
      </trkpt>
      <trkpt lat="45.42627" lon="2.26189">
        <ele>611</ele>
        <time>2024-09-12T19:18:00+00:00</time>
      </trkpt>
      <trkpt lat="45.42638" lon="2.26224">
        <ele>609</ele>
        <time>2024-09-12T19:18:03+00:00</time>
      </trkpt>
      <trkpt lat="45.42644" lon="2.26258">
        <ele>607</ele>
        <time>2024-09-12T19:18:06+00:00</time>
      </trkpt>
      <trkpt lat="45.4265" lon="2.26295">
        <ele>603</ele>
        <time>2024-09-12T19:18:09+00:00</time>
      </trkpt>
      <trkpt lat="45.42655" lon="2.26347">
        <ele>603.9</ele>
        <time>2024-09-12T19:18:12+00:00</time>
      </trkpt>
      <trkpt lat="45.42619" lon="2.26351">
        <ele>594</ele>
        <time>2024-09-12T19:18:15+00:00</time>
      </trkpt>
      <trkpt lat="45.42597" lon="2.26373">
        <ele>596</ele>
        <time>2024-09-12T19:18:18+00:00</time>
      </trkpt>
      <trkpt lat="45.42561" lon="2.26409">
        <ele>598</ele>
        <time>2024-09-12T19:18:21+00:00</time>
      </trkpt>
      <trkpt lat="45.42538" lon="2.2644">
        <ele>596</ele>
        <time>2024-09-12T19:18:24+00:00</time>
      </trkpt>
      <trkpt lat="45.42507" lon="2.26459">
        <ele>594</ele>
        <time>2024-09-12T19:18:27+00:00</time>
      </trkpt>
      <trkpt lat="45.42483" lon="2.26457">
        <ele>594</ele>
        <time>2024-09-12T19:18:30+00:00</time>
      </trkpt>
      <trkpt lat="45.42459" lon="2.26455">
        <ele>595</ele>
        <time>2024-09-12T19:18:33+00:00</time>
      </trkpt>
      <trkpt lat="45.42439" lon="2.26432">
        <ele>596</ele>
        <time>2024-09-12T19:18:36+00:00</time>
      </trkpt>
      <trkpt lat="45.42416" lon="2.26406">
        <ele>605</ele>
        <time>2024-09-12T19:18:39+00:00</time>
      </trkpt>
      <trkpt lat="45.42395" lon="2.26388">
        <ele>608</ele>
        <time>2024-09-12T19:18:42+00:00</time>
      </trkpt>
      <trkpt lat="45.42371" lon="2.26368">
        <ele>612</ele>
        <time>2024-09-12T19:18:45+00:00</time>
      </trkpt>
      <trkpt lat="45.42346" lon="2.26363">
        <ele>614</ele>
        <time>2024-09-12T19:18:48+00:00</time>
      </trkpt>
      <trkpt lat="45.42316" lon="2.26357">
        <ele>613</ele>
        <time>2024-09-12T19:18:51+00:00</time>
      </trkpt>
      <trkpt lat="45.42274" lon="2.26345">
        <ele>612</ele>
        <time>2024-09-12T19:18:54+00:00</time>
      </trkpt>
      <trkpt lat="45.42248" lon="2.26341">
        <ele>612</ele>
        <time>2024-09-12T19:18:57+00:00</time>
      </trkpt>
      <trkpt lat="45.42222" lon="2.26331">
        <ele>610</ele>
        <time>2024-09-12T19:19:00+00:00</time>
      </trkpt>
      <trkpt lat="45.42194" lon="2.26318">
        <ele>610</ele>
        <time>2024-09-12T19:19:03+00:00</time>
      </trkpt>
      <trkpt lat="45.42173" lon="2.26302">
        <ele>610</ele>
        <time>2024-09-12T19:19:06+00:00</time>
      </trkpt>
      <trkpt lat="45.42144" lon="2.26265">
        <ele>609</ele>
        <time>2024-09-12T19:19:09+00:00</time>
      </trkpt>
      <trkpt lat="45.42117" lon="2.26271">
        <ele>609</ele>
        <time>2024-09-12T19:19:12+00:00</time>
      </trkpt>
      <trkpt lat="45.42098" lon="2.26322">
        <ele>605</ele>
        <time>2024-09-12T19:19:15+00:00</time>
      </trkpt>
      <trkpt lat="45.42085" lon="2.26347">
        <ele>605</ele>
        <time>2024-09-12T19:19:18+00:00</time>
      </trkpt>
      <trkpt lat="45.4207" lon="2.26382">
        <ele>607</ele>
        <time>2024-09-12T19:19:21+00:00</time>
      </trkpt>
      <trkpt lat="45.42046" lon="2.26383">
        <ele>619</ele>
        <time>2024-09-12T19:19:24+00:00</time>
      </trkpt>
      <trkpt lat="45.42013" lon="2.26378">
        <ele>623</ele>
        <time>2024-09-12T19:19:27+00:00</time>
      </trkpt>
      <trkpt lat="45.41994" lon="2.26364">
        <ele>623</ele>
        <time>2024-09-12T19:19:30+00:00</time>
      </trkpt>
      <trkpt lat="45.41967" lon="2.26341">
        <ele>626</ele>
        <time>2024-09-12T19:19:33+00:00</time>
      </trkpt>
      <trkpt lat="45.41946" lon="2.26326">
        <ele>629</ele>
        <time>2024-09-12T19:19:36+00:00</time>
      </trkpt>
      <trkpt lat="45.41922" lon="2.26309">
        <ele>627</ele>
        <time>2024-09-12T19:19:39+00:00</time>
      </trkpt>
      <trkpt lat="45.41899" lon="2.263">
        <ele>625</ele>
        <time>2024-09-12T19:19:42+00:00</time>
      </trkpt>
      <trkpt lat="45.41876" lon="2.26291">
        <ele>623</ele>
        <time>2024-09-12T19:19:45+00:00</time>
      </trkpt>
      <trkpt lat="45.41848" lon="2.26266">
        <ele>623</ele>
        <time>2024-09-12T19:19:48+00:00</time>
      </trkpt>
      <trkpt lat="45.41819" lon="2.26238">
        <ele>621</ele>
        <time>2024-09-12T19:19:51+00:00</time>
      </trkpt>
      <trkpt lat="45.41827" lon="2.26274">
        <ele>621</ele>
        <time>2024-09-12T19:19:54+00:00</time>
      </trkpt>
      <trkpt lat="45.41825" lon="2.26364">
        <ele>621</ele>
        <time>2024-09-12T19:19:57+00:00</time>
      </trkpt>
      <trkpt lat="45.41831" lon="2.2639">
        <ele>628</ele>
        <time>2024-09-12T19:20:00+00:00</time>
      </trkpt>
      <trkpt lat="45.41842" lon="2.26427">
        <ele>627</ele>
        <time>2024-09-12T19:20:03+00:00</time>
      </trkpt>
      <trkpt lat="45.4186" lon="2.26483">
        <ele>627</ele>
        <time>2024-09-12T19:20:06+00:00</time>
      </trkpt>
      <trkpt lat="45.41868" lon="2.2652">
        <ele>628</ele>
        <time>2024-09-12T19:20:09+00:00</time>
      </trkpt>
      <trkpt lat="45.4188" lon="2.26559">
        <ele>625</ele>
        <time>2024-09-12T19:20:12+00:00</time>
      </trkpt>
      <trkpt lat="45.41908" lon="2.26609">
        <ele>623</ele>
        <time>2024-09-12T19:20:15+00:00</time>
      </trkpt>
      <trkpt lat="45.41917" lon="2.26634">
        <ele>615</ele>
        <time>2024-09-12T19:20:18+00:00</time>
      </trkpt>
      <trkpt lat="45.4192" lon="2.26674">
        <ele>612</ele>
        <time>2024-09-12T19:20:21+00:00</time>
      </trkpt>
      <trkpt lat="45.41926" lon="2.26715">
        <ele>608</ele>
        <time>2024-09-12T19:20:24+00:00</time>
      </trkpt>
      <trkpt lat="45.41931" lon="2.26749">
        <ele>607</ele>
        <time>2024-09-12T19:20:27+00:00</time>
      </trkpt>
      <trkpt lat="45.41936" lon="2.26784">
        <ele>607</ele>
        <time>2024-09-12T19:20:30+00:00</time>
      </trkpt>
      <trkpt lat="45.41936" lon="2.26818">
        <ele>606</ele>
        <time>2024-09-12T19:20:33+00:00</time>
      </trkpt>
      <trkpt lat="45.41936" lon="2.26853">
        <ele>604</ele>
        <time>2024-09-12T19:20:36+00:00</time>
      </trkpt>
      <trkpt lat="45.41935" lon="2.26887">
        <ele>603</ele>
        <time>2024-09-12T19:20:39+00:00</time>
      </trkpt>
      <trkpt lat="45.41923" lon="2.26926">
        <ele>602</ele>
        <time>2024-09-12T19:20:42+00:00</time>
      </trkpt>
      <trkpt lat="45.41913" lon="2.26958">
        <ele>603</ele>
        <time>2024-09-12T19:20:45+00:00</time>
      </trkpt>
      <trkpt lat="45.41902" lon="2.26992">
        <ele>601</ele>
        <time>2024-09-12T19:20:48+00:00</time>
      </trkpt>
      <trkpt lat="45.41888" lon="2.27038">
        <ele>601</ele>
        <time>2024-09-12T19:20:51+00:00</time>
      </trkpt>
      <trkpt lat="45.41875" lon="2.27067">
        <ele>601</ele>
        <time>2024-09-12T19:20:54+00:00</time>
      </trkpt>
      <trkpt lat="45.41861" lon="2.27098">
        <ele>600</ele>
        <time>2024-09-12T19:20:57+00:00</time>
      </trkpt>
      <trkpt lat="45.41844" lon="2.27121">
        <ele>599</ele>
        <time>2024-09-12T19:21:00+00:00</time>
      </trkpt>
      <trkpt lat="45.4182" lon="2.27142">
        <ele>602</ele>
        <time>2024-09-12T19:21:03+00:00</time>
      </trkpt>
      <trkpt lat="45.41792" lon="2.27136">
        <ele>606</ele>
        <time>2024-09-12T19:21:06+00:00</time>
      </trkpt>
      <trkpt lat="45.41722" lon="2.27071">
        <ele>612</ele>
        <time>2024-09-12T19:21:09+00:00</time>
      </trkpt>
      <trkpt lat="45.41691" lon="2.2705">
        <ele>613</ele>
        <time>2024-09-12T19:21:12+00:00</time>
      </trkpt>
      <trkpt lat="45.41661" lon="2.2703">
        <ele>621</ele>
        <time>2024-09-12T19:21:15+00:00</time>
      </trkpt>
      <trkpt lat="45.41639" lon="2.27014">
        <ele>619</ele>
        <time>2024-09-12T19:21:18+00:00</time>
      </trkpt>
      <trkpt lat="45.41617" lon="2.26999">
        <ele>621</ele>
        <time>2024-09-12T19:21:21+00:00</time>
      </trkpt>
      <trkpt lat="45.41598" lon="2.26987">
        <ele>623</ele>
        <time>2024-09-12T19:21:24+00:00</time>
      </trkpt>
      <trkpt lat="45.4157" lon="2.26978">
        <ele>623</ele>
        <time>2024-09-12T19:21:27+00:00</time>
      </trkpt>
      <trkpt lat="45.41528" lon="2.26963">
        <ele>614</ele>
        <time>2024-09-12T19:21:30+00:00</time>
      </trkpt>
      <trkpt lat="45.41484" lon="2.26962">
        <ele>603</ele>
        <time>2024-09-12T19:21:33+00:00</time>
      </trkpt>
      <trkpt lat="45.41439" lon="2.26963">
        <ele>605</ele>
        <time>2024-09-12T19:21:36+00:00</time>
      </trkpt>
      <trkpt lat="45.41403" lon="2.26976">
        <ele>605</ele>
        <time>2024-09-12T19:21:39+00:00</time>
      </trkpt>
      <trkpt lat="45.41374" lon="2.27004">
        <ele>605</ele>
        <time>2024-09-12T19:21:42+00:00</time>
      </trkpt>
      <trkpt lat="45.41344" lon="2.27031">
        <ele>604</ele>
        <time>2024-09-12T19:21:45+00:00</time>
      </trkpt>
      <trkpt lat="45.41321" lon="2.27053">
        <ele>603</ele>
        <time>2024-09-12T19:21:48+00:00</time>
      </trkpt>
      <trkpt lat="45.41287" lon="2.27085">
        <ele>607</ele>
        <time>2024-09-12T19:21:51+00:00</time>
      </trkpt>
      <trkpt lat="45.41268" lon="2.27099">
        <ele>605</ele>
        <time>2024-09-12T19:21:54+00:00</time>
      </trkpt>
      <trkpt lat="45.41234" lon="2.27106">
        <ele>608</ele>
        <time>2024-09-12T19:21:57+00:00</time>
      </trkpt>
      <trkpt lat="45.41209" lon="2.27097">
        <ele>612</ele>
        <time>2024-09-12T19:22:00+00:00</time>
      </trkpt>
      <trkpt lat="45.41183" lon="2.27076">
        <ele>614</ele>
        <time>2024-09-12T19:22:03+00:00</time>
      </trkpt>
      <trkpt lat="45.41161" lon="2.27091">
        <ele>614</ele>
        <time>2024-09-12T19:22:06+00:00</time>
      </trkpt>
      <trkpt lat="45.41149" lon="2.27127">
        <ele>612</ele>
        <time>2024-09-12T19:22:09+00:00</time>
      </trkpt>
      <trkpt lat="45.4113" lon="2.27179">
        <ele>607</ele>
        <time>2024-09-12T19:22:12+00:00</time>
      </trkpt>
      <trkpt lat="45.41134" lon="2.27216">
        <ele>605</ele>
        <time>2024-09-12T19:22:15+00:00</time>
      </trkpt>
      <trkpt lat="45.41154" lon="2.27258">
        <ele>607</ele>
        <time>2024-09-12T19:22:18+00:00</time>
      </trkpt>
      <trkpt lat="45.41175" lon="2.27297">
        <ele>609</ele>
        <time>2024-09-12T19:22:21+00:00</time>
      </trkpt>
      <trkpt lat="45.41183" lon="2.27325">
        <ele>614</ele>
        <time>2024-09-12T19:22:24+00:00</time>
      </trkpt>
      <trkpt lat="45.41196" lon="2.27383">
        <ele>613</ele>
        <time>2024-09-12T19:22:27+00:00</time>
      </trkpt>
      <trkpt lat="45.41196" lon="2.27418">
        <ele>613</ele>
        <time>2024-09-12T19:22:30+00:00</time>
      </trkpt>
      <trkpt lat="45.41184" lon="2.27444">
        <ele>615</ele>
        <time>2024-09-12T19:22:33+00:00</time>
      </trkpt>
      <trkpt lat="45.41166" lon="2.27457">
        <ele>615</ele>
        <time>2024-09-12T19:22:36+00:00</time>
      </trkpt>
      <trkpt lat="45.41114" lon="2.27458">
        <ele>621</ele>
        <time>2024-09-12T19:22:39+00:00</time>
      </trkpt>
      <trkpt lat="45.41081" lon="2.27472">
        <ele>619</ele>
        <time>2024-09-12T19:22:42+00:00</time>
      </trkpt>
      <trkpt lat="45.41092" lon="2.27505">
        <ele>610.7</ele>
        <time>2024-09-12T19:22:45+00:00</time>
      </trkpt>
      <trkpt lat="45.41043" lon="2.27504">
        <ele>617</ele>
        <time>2024-09-12T19:22:48+00:00</time>
      </trkpt>
      <trkpt lat="45.41021" lon="2.27496">
        <ele>617</ele>
        <time>2024-09-12T19:22:51+00:00</time>
      </trkpt>
      <trkpt lat="45.40993" lon="2.27483">
        <ele>616</ele>
        <time>2024-09-12T19:22:54+00:00</time>
      </trkpt>
      <trkpt lat="45.40969" lon="2.27479">
        <ele>613</ele>
        <time>2024-09-12T19:22:57+00:00</time>
      </trkpt>
      <trkpt lat="45.40943" lon="2.27475">
        <ele>605</ele>
        <time>2024-09-12T19:23:00+00:00</time>
      </trkpt>
      <trkpt lat="45.40897" lon="2.27473">
        <ele>604</ele>
        <time>2024-09-12T19:23:03+00:00</time>
      </trkpt>
      <trkpt lat="45.40868" lon="2.27489">
        <ele>603</ele>
        <time>2024-09-12T19:23:06+00:00</time>
      </trkpt>
      <trkpt lat="45.4084" lon="2.27502">
        <ele>603</ele>
        <time>2024-09-12T19:23:09+00:00</time>
      </trkpt>
      <trkpt lat="45.40814" lon="2.27507">
        <ele>602</ele>
        <time>2024-09-12T19:23:12+00:00</time>
      </trkpt>
      <trkpt lat="45.40805" lon="2.27531">
        <ele>603</ele>
        <time>2024-09-12T19:23:15+00:00</time>
      </trkpt>
      <trkpt lat="45.40814" lon="2.27577">
        <ele>602</ele>
        <time>2024-09-12T19:23:18+00:00</time>
      </trkpt>
      <trkpt lat="45.40817" lon="2.27612">
        <ele>601</ele>
        <time>2024-09-12T19:23:21+00:00</time>
      </trkpt>
      <trkpt lat="45.4081" lon="2.27638">
        <ele>601</ele>
        <time>2024-09-12T19:23:24+00:00</time>
      </trkpt>
      <trkpt lat="45.40759" lon="2.27663">
        <ele>601</ele>
        <time>2024-09-12T19:23:27+00:00</time>
      </trkpt>
      <trkpt lat="45.40734" lon="2.27692">
        <ele>599</ele>
        <time>2024-09-12T19:23:30+00:00</time>
      </trkpt>
      <trkpt lat="45.4071" lon="2.27721">
        <ele>598</ele>
        <time>2024-09-12T19:23:33+00:00</time>
      </trkpt>
      <trkpt lat="45.40682" lon="2.27754">
        <ele>598</ele>
        <time>2024-09-12T19:23:36+00:00</time>
      </trkpt>
      <trkpt lat="45.40659" lon="2.2777">
        <ele>599</ele>
        <time>2024-09-12T19:23:39+00:00</time>
      </trkpt>
      <trkpt lat="45.40627" lon="2.27764">
        <ele>600</ele>
        <time>2024-09-12T19:23:42+00:00</time>
      </trkpt>
      <trkpt lat="45.40608" lon="2.27759">
        <ele>600</ele>
        <time>2024-09-12T19:23:45+00:00</time>
      </trkpt>
      <trkpt lat="45.40585" lon="2.27706">
        <ele>609</ele>
        <time>2024-09-12T19:23:48+00:00</time>
      </trkpt>
      <trkpt lat="45.40562" lon="2.27682">
        <ele>611</ele>
        <time>2024-09-12T19:23:51+00:00</time>
      </trkpt>
      <trkpt lat="45.40534" lon="2.27681">
        <ele>609</ele>
        <time>2024-09-12T19:23:54+00:00</time>
      </trkpt>
      <trkpt lat="45.40494" lon="2.27699">
        <ele>612</ele>
        <time>2024-09-12T19:23:57+00:00</time>
      </trkpt>
      <trkpt lat="45.40459" lon="2.27718">
        <ele>611</ele>
        <time>2024-09-12T19:24:00+00:00</time>
      </trkpt>
      <trkpt lat="45.40434" lon="2.27717">
        <ele>611</ele>
        <time>2024-09-12T19:24:03+00:00</time>
      </trkpt>
      <trkpt lat="45.40412" lon="2.27696">
        <ele>610</ele>
        <time>2024-09-12T19:24:06+00:00</time>
      </trkpt>
      <trkpt lat="45.40386" lon="2.27685">
        <ele>610</ele>
        <time>2024-09-12T19:24:09+00:00</time>
      </trkpt>
      <trkpt lat="45.40359" lon="2.27696">
        <ele>607</ele>
        <time>2024-09-12T19:24:12+00:00</time>
      </trkpt>
      <trkpt lat="45.40331" lon="2.27711">
        <ele>605</ele>
        <time>2024-09-12T19:24:15+00:00</time>
      </trkpt>
      <trkpt lat="45.40309" lon="2.27724">
        <ele>605</ele>
        <time>2024-09-12T19:24:18+00:00</time>
      </trkpt>
      <trkpt lat="45.40286" lon="2.27737">
        <ele>603</ele>
        <time>2024-09-12T19:24:21+00:00</time>
      </trkpt>
      <trkpt lat="45.40277" lon="2.27775">
        <ele>601</ele>
        <time>2024-09-12T19:24:24+00:00</time>
      </trkpt>
      <trkpt lat="45.40275" lon="2.2781">
        <ele>600</ele>
        <time>2024-09-12T19:24:27+00:00</time>
      </trkpt>
      <trkpt lat="45.40274" lon="2.2785">
        <ele>600</ele>
        <time>2024-09-12T19:24:30+00:00</time>
      </trkpt>
      <trkpt lat="45.4027" lon="2.27894">
        <ele>605</ele>
        <time>2024-09-12T19:24:33+00:00</time>
      </trkpt>
      <trkpt lat="45.40263" lon="2.2792">
        <ele>607</ele>
        <time>2024-09-12T19:24:36+00:00</time>
      </trkpt>
      <trkpt lat="45.40246" lon="2.27945">
        <ele>609</ele>
        <time>2024-09-12T19:24:39+00:00</time>
      </trkpt>
      <trkpt lat="45.40224" lon="2.27953">
        <ele>609</ele>
        <time>2024-09-12T19:24:42+00:00</time>
      </trkpt>
      <trkpt lat="45.40208" lon="2.27969">
        <ele>606</ele>
        <time>2024-09-12T19:24:45+00:00</time>
      </trkpt>
      <trkpt lat="45.40196" lon="2.27991">
        <ele>606</ele>
        <time>2024-09-12T19:24:48+00:00</time>
      </trkpt>
      <trkpt lat="45.40188" lon="2.28022">
        <ele>605</ele>
        <time>2024-09-12T19:24:51+00:00</time>
      </trkpt>
      <trkpt lat="45.4022" lon="2.28036">
        <ele>605</ele>
        <time>2024-09-12T19:24:54+00:00</time>
      </trkpt>
      <trkpt lat="45.40251" lon="2.28051">
        <ele>608</ele>
        <time>2024-09-12T19:24:57+00:00</time>
      </trkpt>
      <trkpt lat="45.40295" lon="2.2807">
        <ele>607</ele>
        <time>2024-09-12T19:25:00+00:00</time>
      </trkpt>
      <trkpt lat="45.40266" lon="2.28094">
        <ele>606</ele>
        <time>2024-09-12T19:25:03+00:00</time>
      </trkpt>
      <trkpt lat="45.40236" lon="2.28117">
        <ele>603</ele>
        <time>2024-09-12T19:25:06+00:00</time>
      </trkpt>
      <trkpt lat="45.40214" lon="2.28135">
        <ele>601</ele>
        <time>2024-09-12T19:25:09+00:00</time>
      </trkpt>
      <trkpt lat="45.40191" lon="2.28153">
        <ele>601</ele>
        <time>2024-09-12T19:25:12+00:00</time>
      </trkpt>
      <trkpt lat="45.40157" lon="2.28174">
        <ele>603</ele>
        <time>2024-09-12T19:25:15+00:00</time>
      </trkpt>
      <trkpt lat="45.40123" lon="2.28194">
        <ele>603</ele>
        <time>2024-09-12T19:25:18+00:00</time>
      </trkpt>
      <trkpt lat="45.40089" lon="2.28215">
        <ele>600</ele>
        <time>2024-09-12T19:25:21+00:00</time>
      </trkpt>
      <trkpt lat="45.40066" lon="2.2823">
        <ele>600</ele>
        <time>2024-09-12T19:25:24+00:00</time>
      </trkpt>
      <trkpt lat="45.40037" lon="2.28247">
        <ele>605</ele>
        <time>2024-09-12T19:25:27+00:00</time>
      </trkpt>
      <trkpt lat="45.40021" lon="2.28267">
        <ele>605</ele>
        <time>2024-09-12T19:25:30+00:00</time>
      </trkpt>
      <trkpt lat="45.40013" lon="2.28297">
        <ele>611</ele>
        <time>2024-09-12T19:25:33+00:00</time>
      </trkpt>
      <trkpt lat="45.4" lon="2.28333">
        <ele>612</ele>
        <time>2024-09-12T19:25:36+00:00</time>
      </trkpt>
      <trkpt lat="45.39987" lon="2.28363">
        <ele>611</ele>
        <time>2024-09-12T19:25:39+00:00</time>
      </trkpt>
      <trkpt lat="45.39962" lon="2.28394">
        <ele>611</ele>
        <time>2024-09-12T19:25:42+00:00</time>
      </trkpt>
      <trkpt lat="45.39932" lon="2.28424">
        <ele>610</ele>
        <time>2024-09-12T19:25:45+00:00</time>
      </trkpt>
      <trkpt lat="45.39906" lon="2.2844">
        <ele>609</ele>
        <time>2024-09-12T19:25:48+00:00</time>
      </trkpt>
      <trkpt lat="45.39867" lon="2.28464">
        <ele>605</ele>
        <time>2024-09-12T19:25:51+00:00</time>
      </trkpt>
      <trkpt lat="45.39844" lon="2.28486">
        <ele>604</ele>
        <time>2024-09-12T19:25:54+00:00</time>
      </trkpt>
      <trkpt lat="45.39813" lon="2.28516">
        <ele>604</ele>
        <time>2024-09-12T19:25:57+00:00</time>
      </trkpt>
      <trkpt lat="45.39794" lon="2.28542">
        <ele>603</ele>
        <time>2024-09-12T19:26:00+00:00</time>
      </trkpt>
      <trkpt lat="45.39774" lon="2.28581">
        <ele>603</ele>
        <time>2024-09-12T19:26:03+00:00</time>
      </trkpt>
      <trkpt lat="45.39754" lon="2.2862">
        <ele>597</ele>
        <time>2024-09-12T19:26:06+00:00</time>
      </trkpt>
      <trkpt lat="45.39739" lon="2.28649">
        <ele>596</ele>
        <time>2024-09-12T19:26:09+00:00</time>
      </trkpt>
      <trkpt lat="45.39723" lon="2.28681">
        <ele>597</ele>
        <time>2024-09-12T19:26:12+00:00</time>
      </trkpt>
      <trkpt lat="45.39699" lon="2.28717">
        <ele>599</ele>
        <time>2024-09-12T19:26:15+00:00</time>
      </trkpt>
      <trkpt lat="45.3968" lon="2.28729">
        <ele>601</ele>
        <time>2024-09-12T19:26:18+00:00</time>
      </trkpt>
      <trkpt lat="45.39653" lon="2.28729">
        <ele>601</ele>
        <time>2024-09-12T19:26:21+00:00</time>
      </trkpt>
      <trkpt lat="45.39599" lon="2.28754">
        <ele>601.6</ele>
        <time>2024-09-12T19:26:24+00:00</time>
      </trkpt>
      <trkpt lat="45.39591" lon="2.28721">
        <ele>600.8</ele>
        <time>2024-09-12T19:26:27+00:00</time>
      </trkpt>
      <trkpt lat="45.39599" lon="2.28679">
        <ele>597</ele>
        <time>2024-09-12T19:26:30+00:00</time>
      </trkpt>
      <trkpt lat="45.39611" lon="2.28651">
        <ele>599</ele>
        <time>2024-09-12T19:26:33+00:00</time>
      </trkpt>
      <trkpt lat="45.39589" lon="2.28628">
        <ele>601</ele>
        <time>2024-09-12T19:26:36+00:00</time>
      </trkpt>
      <trkpt lat="45.39562" lon="2.28597">
        <ele>600</ele>
        <time>2024-09-12T19:26:39+00:00</time>
      </trkpt>
      <trkpt lat="45.39536" lon="2.28588">
        <ele>600</ele>
        <time>2024-09-12T19:26:42+00:00</time>
      </trkpt>
      <trkpt lat="45.39518" lon="2.28555">
        <ele>600</ele>
        <time>2024-09-12T19:26:45+00:00</time>
      </trkpt>
      <trkpt lat="45.39518" lon="2.28516">
        <ele>600</ele>
        <time>2024-09-12T19:26:48+00:00</time>
      </trkpt>
      <trkpt lat="45.39511" lon="2.28489">
        <ele>599</ele>
        <time>2024-09-12T19:26:51+00:00</time>
      </trkpt>
      <trkpt lat="45.39477" lon="2.2846">
        <ele>599</ele>
        <time>2024-09-12T19:26:54+00:00</time>
      </trkpt>
      <trkpt lat="45.39461" lon="2.28506">
        <ele>599</ele>
        <time>2024-09-12T19:26:57+00:00</time>
      </trkpt>
      <trkpt lat="45.39456" lon="2.2857">
        <ele>601.7</ele>
        <time>2024-09-12T19:27:00+00:00</time>
      </trkpt>
      <trkpt lat="45.39438" lon="2.28595">
        <ele>600</ele>
        <time>2024-09-12T19:27:03+00:00</time>
      </trkpt>
      <trkpt lat="45.3942" lon="2.28623">
        <ele>598</ele>
        <time>2024-09-12T19:27:06+00:00</time>
      </trkpt>
      <trkpt lat="45.39398" lon="2.28657">
        <ele>597</ele>
        <time>2024-09-12T19:27:09+00:00</time>
      </trkpt>
      <trkpt lat="45.39378" lon="2.28687">
        <ele>597</ele>
        <time>2024-09-12T19:27:12+00:00</time>
      </trkpt>
      <trkpt lat="45.39352" lon="2.28702">
        <ele>593</ele>
        <time>2024-09-12T19:27:15+00:00</time>
      </trkpt>
      <trkpt lat="45.39315" lon="2.28723">
        <ele>591</ele>
        <time>2024-09-12T19:27:18+00:00</time>
      </trkpt>
      <trkpt lat="45.39291" lon="2.28727">
        <ele>594</ele>
        <time>2024-09-12T19:27:21+00:00</time>
      </trkpt>
      <trkpt lat="45.39267" lon="2.28731">
        <ele>595</ele>
        <time>2024-09-12T19:27:24+00:00</time>
      </trkpt>
      <trkpt lat="45.39214" lon="2.2873">
        <ele>603.2</ele>
        <time>2024-09-12T19:27:27+00:00</time>
      </trkpt>
      <trkpt lat="45.39194" lon="2.2877">
        <ele>600</ele>
        <time>2024-09-12T19:27:30+00:00</time>
      </trkpt>
      <trkpt lat="45.39189" lon="2.28814">
        <ele>603</ele>
        <time>2024-09-12T19:27:33+00:00</time>
      </trkpt>
      <trkpt lat="45.39187" lon="2.2885">
        <ele>601</ele>
        <time>2024-09-12T19:27:36+00:00</time>
      </trkpt>
      <trkpt lat="45.39185" lon="2.28889">
        <ele>600</ele>
        <time>2024-09-12T19:27:39+00:00</time>
      </trkpt>
      <trkpt lat="45.39171" lon="2.28911">
        <ele>596</ele>
        <time>2024-09-12T19:27:42+00:00</time>
      </trkpt>
      <trkpt lat="45.39137" lon="2.28964">
        <ele>593</ele>
        <time>2024-09-12T19:27:45+00:00</time>
      </trkpt>
      <trkpt lat="45.39133" lon="2.2899">
        <ele>593</ele>
        <time>2024-09-12T19:27:48+00:00</time>
      </trkpt>
      <trkpt lat="45.39112" lon="2.29023">
        <ele>594</ele>
        <time>2024-09-12T19:27:51+00:00</time>
      </trkpt>
      <trkpt lat="45.39102" lon="2.29058">
        <ele>596</ele>
        <time>2024-09-12T19:27:54+00:00</time>
      </trkpt>
      <trkpt lat="45.391" lon="2.2909">
        <ele>598</ele>
        <time>2024-09-12T19:27:57+00:00</time>
      </trkpt>
      <trkpt lat="45.39101" lon="2.29124">
        <ele>599</ele>
        <time>2024-09-12T19:28:00+00:00</time>
      </trkpt>
      <trkpt lat="45.39102" lon="2.2916">
        <ele>597</ele>
        <time>2024-09-12T19:28:03+00:00</time>
      </trkpt>
      <trkpt lat="45.39012" lon="2.29196">
        <ele>601.5</ele>
        <time>2024-09-12T19:28:06+00:00</time>
      </trkpt>
      <trkpt lat="45.39003" lon="2.29183">
        <ele>602.7</ele>
        <time>2024-09-12T18:45:36+00:00</time>
      </trkpt>
      <trkpt lat="45.39003" lon="2.29183">
        <ele>602.7</ele>
        <time>2024-09-12T18:45:36+00:00</time>
      </trkpt>
      <trkpt lat="45.38986" lon="2.29133">
        <ele>605.6</ele>
      </trkpt>
      <trkpt lat="45.38966" lon="2.29143">
        <ele>596</ele>
        <time>2024-09-12T18:45:39+00:00</time>
      </trkpt>
      <trkpt lat="45.38947" lon="2.29146">
        <ele>593</ele>
        <time>2024-09-12T18:45:42+00:00</time>
      </trkpt>
      <trkpt lat="45.38917" lon="2.2914">
        <ele>594</ele>
        <time>2024-09-12T18:45:45+00:00</time>
      </trkpt>
      <trkpt lat="45.38894" lon="2.29135">
        <ele>596</ele>
        <time>2024-09-12T18:45:48+00:00</time>
      </trkpt>
      <trkpt lat="45.38869" lon="2.2913">
        <ele>600</ele>
        <time>2024-09-12T18:45:51+00:00</time>
      </trkpt>
      <trkpt lat="45.38842" lon="2.29116">
        <ele>606</ele>
        <time>2024-09-12T18:45:54+00:00</time>
      </trkpt>
      <trkpt lat="45.38825" lon="2.29088">
        <ele>606</ele>
        <time>2024-09-12T18:45:57+00:00</time>
      </trkpt>
      <trkpt lat="45.38803" lon="2.29052">
        <ele>606</ele>
        <time>2024-09-12T18:46:00+00:00</time>
      </trkpt>
      <trkpt lat="45.38787" lon="2.29029">
        <ele>604</ele>
        <time>2024-09-12T18:46:03+00:00</time>
      </trkpt>
      <trkpt lat="45.38757" lon="2.29025">
        <ele>603</ele>
        <time>2024-09-12T18:46:06+00:00</time>
      </trkpt>
      <trkpt lat="45.38634" lon="2.29141">
        <ele>600</ele>
        <time>2024-09-12T18:46:09+00:00</time>
      </trkpt>
      <trkpt lat="45.38618" lon="2.29171">
        <ele>597</ele>
        <time>2024-09-12T18:46:12+00:00</time>
      </trkpt>
      <trkpt lat="45.38629" lon="2.29201">
        <ele>595</ele>
        <time>2024-09-12T18:46:15+00:00</time>
      </trkpt>
      <trkpt lat="45.38628" lon="2.29231">
        <ele>601</ele>
        <time>2024-09-12T18:46:18+00:00</time>
      </trkpt>
      <trkpt lat="45.38541" lon="2.29225">
        <ele>607</ele>
        <time>2024-09-12T18:46:21+00:00</time>
      </trkpt>
      <trkpt lat="45.38514" lon="2.29214">
        <ele>609</ele>
        <time>2024-09-12T18:46:24+00:00</time>
      </trkpt>
      <trkpt lat="45.3848" lon="2.29204">
        <ele>609</ele>
        <time>2024-09-12T18:46:27+00:00</time>
      </trkpt>
      <trkpt lat="45.38461" lon="2.29239">
        <ele>608</ele>
        <time>2024-09-12T18:46:30+00:00</time>
      </trkpt>
      <trkpt lat="45.38463" lon="2.29273">
        <ele>607</ele>
        <time>2024-09-12T18:46:33+00:00</time>
      </trkpt>
      <trkpt lat="45.38485" lon="2.29296">
        <ele>607</ele>
        <time>2024-09-12T18:46:36+00:00</time>
      </trkpt>
      <trkpt lat="45.38517" lon="2.29327">
        <ele>607</ele>
        <time>2024-09-12T18:46:39+00:00</time>
      </trkpt>
      <trkpt lat="45.38531" lon="2.29358">
        <ele>607</ele>
        <time>2024-09-12T18:46:42+00:00</time>
      </trkpt>
      <trkpt lat="45.38547" lon="2.29393">
        <ele>607</ele>
        <time>2024-09-12T18:46:45+00:00</time>
      </trkpt>
      <trkpt lat="45.38543" lon="2.29453">
        <ele>603</ele>
        <time>2024-09-12T18:46:48+00:00</time>
      </trkpt>
      <trkpt lat="45.38523" lon="2.29499">
        <ele>598</ele>
        <time>2024-09-12T18:46:51+00:00</time>
      </trkpt>
      <trkpt lat="45.38499" lon="2.29522">
        <ele>593</ele>
        <time>2024-09-12T18:46:54+00:00</time>
      </trkpt>
      <trkpt lat="45.38465" lon="2.29547">
        <ele>593</ele>
        <time>2024-09-12T18:46:57+00:00</time>
      </trkpt>
      <trkpt lat="45.38432" lon="2.29568">
        <ele>595</ele>
        <time>2024-09-12T18:47:00+00:00</time>
      </trkpt>
      <trkpt lat="45.38399" lon="2.29585">
        <ele>598</ele>
        <time>2024-09-12T18:47:03+00:00</time>
      </trkpt>
      <trkpt lat="45.3837" lon="2.29601">
        <ele>598</ele>
        <time>2024-09-12T18:47:06+00:00</time>
      </trkpt>
      <trkpt lat="45.38353" lon="2.29624">
        <ele>598</ele>
        <time>2024-09-12T18:47:09+00:00</time>
      </trkpt>
      <trkpt lat="45.38332" lon="2.29644">
        <ele>599</ele>
        <time>2024-09-12T18:47:12+00:00</time>
      </trkpt>
      <trkpt lat="45.38291" lon="2.29618">
        <ele>604</ele>
        <time>2024-09-12T18:47:15+00:00</time>
      </trkpt>
      <trkpt lat="45.38274" lon="2.29596">
        <ele>604</ele>
        <time>2024-09-12T18:47:18+00:00</time>
      </trkpt>
      <trkpt lat="45.38252" lon="2.29572">
        <ele>604</ele>
        <time>2024-09-12T18:47:21+00:00</time>
      </trkpt>
      <trkpt lat="45.38217" lon="2.29568">
        <ele>602</ele>
        <time>2024-09-12T18:47:24+00:00</time>
      </trkpt>
      <trkpt lat="45.38187" lon="2.29533">
        <ele>601</ele>
        <time>2024-09-12T18:47:27+00:00</time>
      </trkpt>
      <trkpt lat="45.38174" lon="2.29495">
        <ele>601</ele>
        <time>2024-09-12T18:47:30+00:00</time>
      </trkpt>
      <trkpt lat="45.38155" lon="2.29478">
        <ele>603</ele>
        <time>2024-09-12T18:47:33+00:00</time>
      </trkpt>
      <trkpt lat="45.38122" lon="2.29455">
        <ele>606</ele>
        <time>2024-09-12T18:47:36+00:00</time>
      </trkpt>
      <trkpt lat="45.38102" lon="2.29452">
        <ele>606</ele>
        <time>2024-09-12T18:47:39+00:00</time>
      </trkpt>
      <trkpt lat="45.38065" lon="2.29474">
        <ele>600</ele>
        <time>2024-09-12T18:47:42+00:00</time>
      </trkpt>
      <trkpt lat="45.38051" lon="2.29496">
        <ele>600</ele>
        <time>2024-09-12T18:47:45+00:00</time>
      </trkpt>
      <trkpt lat="45.38047" lon="2.29524">
        <ele>598</ele>
        <time>2024-09-12T18:47:48+00:00</time>
      </trkpt>
      <trkpt lat="45.38046" lon="2.29563">
        <ele>597</ele>
        <time>2024-09-12T18:47:51+00:00</time>
      </trkpt>
      <trkpt lat="45.38033" lon="2.29586">
        <ele>594</ele>
        <time>2024-09-12T18:47:54+00:00</time>
      </trkpt>
      <trkpt lat="45.38009" lon="2.29603">
        <ele>593</ele>
        <time>2024-09-12T18:47:57+00:00</time>
      </trkpt>
      <trkpt lat="45.37973" lon="2.29607">
        <ele>593</ele>
        <time>2024-09-12T18:48:00+00:00</time>
      </trkpt>
      <trkpt lat="45.37935" lon="2.29604">
        <ele>596</ele>
        <time>2024-09-12T18:48:03+00:00</time>
      </trkpt>
      <trkpt lat="45.37914" lon="2.29597">
        <ele>595</ele>
        <time>2024-09-12T18:48:06+00:00</time>
      </trkpt>
      <trkpt lat="45.37898" lon="2.2957">
        <ele>595</ele>
        <time>2024-09-12T18:48:09+00:00</time>
      </trkpt>
      <trkpt lat="45.37892" lon="2.29543">
        <ele>597</ele>
        <time>2024-09-12T18:48:12+00:00</time>
      </trkpt>
      <trkpt lat="45.37882" lon="2.29516">
        <ele>597</ele>
        <time>2024-09-12T18:48:15+00:00</time>
      </trkpt>
      <trkpt lat="45.37862" lon="2.295">
        <ele>596</ele>
        <time>2024-09-12T18:48:18+00:00</time>
      </trkpt>
      <trkpt lat="45.37835" lon="2.29503">
        <ele>596</ele>
        <time>2024-09-12T18:48:21+00:00</time>
      </trkpt>
      <trkpt lat="45.37813" lon="2.2952">
        <ele>595</ele>
        <time>2024-09-12T18:48:24+00:00</time>
      </trkpt>
      <trkpt lat="45.37795" lon="2.29536">
        <ele>595</ele>
        <time>2024-09-12T18:48:27+00:00</time>
      </trkpt>
      <trkpt lat="45.3776" lon="2.29503">
        <ele>603</ele>
        <time>2024-09-12T18:48:30+00:00</time>
      </trkpt>
      <trkpt lat="45.3774" lon="2.29473">
        <ele>607</ele>
        <time>2024-09-12T18:48:33+00:00</time>
      </trkpt>
      <trkpt lat="45.37727" lon="2.29446">
        <ele>607</ele>
        <time>2024-09-12T18:48:36+00:00</time>
      </trkpt>
      <trkpt lat="45.37717" lon="2.29416">
        <ele>604</ele>
        <time>2024-09-12T18:48:39+00:00</time>
      </trkpt>
      <trkpt lat="45.37698" lon="2.29382">
        <ele>604</ele>
        <time>2024-09-12T18:48:42+00:00</time>
      </trkpt>
      <trkpt lat="45.37667" lon="2.29388">
        <ele>604</ele>
        <time>2024-09-12T18:48:45+00:00</time>
      </trkpt>
      <trkpt lat="45.37653" lon="2.29409">
        <ele>606</ele>
        <time>2024-09-12T18:48:48+00:00</time>
      </trkpt>
      <trkpt lat="45.3765" lon="2.29454">
        <ele>606</ele>
        <time>2024-09-12T18:48:51+00:00</time>
      </trkpt>
      <trkpt lat="45.3766" lon="2.29502">
        <ele>606</ele>
        <time>2024-09-12T18:48:54+00:00</time>
      </trkpt>
      <trkpt lat="45.3767" lon="2.29549">
        <ele>606</ele>
        <time>2024-09-12T18:48:57+00:00</time>
      </trkpt>
      <trkpt lat="45.37677" lon="2.29586">
        <ele>610</ele>
        <time>2024-09-12T18:49:00+00:00</time>
      </trkpt>
      <trkpt lat="45.37687" lon="2.29635">
        <ele>610</ele>
        <time>2024-09-12T18:49:03+00:00</time>
      </trkpt>
      <trkpt lat="45.37688" lon="2.29674">
        <ele>609</ele>
        <time>2024-09-12T18:49:06+00:00</time>
      </trkpt>
      <trkpt lat="45.37676" lon="2.29723">
        <ele>608</ele>
        <time>2024-09-12T18:49:09+00:00</time>
      </trkpt>
      <trkpt lat="45.37676" lon="2.29758">
        <ele>605</ele>
        <time>2024-09-12T18:49:12+00:00</time>
      </trkpt>
      <trkpt lat="45.3769" lon="2.29811">
        <ele>601</ele>
        <time>2024-09-12T18:49:15+00:00</time>
      </trkpt>
      <trkpt lat="45.3769" lon="2.29854">
        <ele>602</ele>
        <time>2024-09-12T18:49:18+00:00</time>
      </trkpt>
      <trkpt lat="45.37677" lon="2.29884">
        <ele>603</ele>
        <time>2024-09-12T18:49:21+00:00</time>
      </trkpt>
      <trkpt lat="45.3766" lon="2.29916">
        <ele>605</ele>
        <time>2024-09-12T18:49:24+00:00</time>
      </trkpt>
      <trkpt lat="45.37631" lon="2.29945">
        <ele>609</ele>
        <time>2024-09-12T18:49:27+00:00</time>
      </trkpt>
      <trkpt lat="45.37623" lon="2.29998">
        <ele>612</ele>
        <time>2024-09-12T18:49:30+00:00</time>
      </trkpt>
      <trkpt lat="45.37612" lon="2.30049">
        <ele>613</ele>
        <time>2024-09-12T18:49:33+00:00</time>
      </trkpt>
      <trkpt lat="45.37629" lon="2.3011">
        <ele>613</ele>
        <time>2024-09-12T18:49:36+00:00</time>
      </trkpt>
      <trkpt lat="45.37637" lon="2.30146">
        <ele>612</ele>
        <time>2024-09-12T18:49:39+00:00</time>
      </trkpt>
      <trkpt lat="45.37643" lon="2.30184">
        <ele>612</ele>
        <time>2024-09-12T18:49:42+00:00</time>
      </trkpt>
      <trkpt lat="45.37686" lon="2.30169">
        <ele>618</ele>
        <time>2024-09-12T18:49:45+00:00</time>
      </trkpt>
      <trkpt lat="45.37715" lon="2.30187">
        <ele>628</ele>
        <time>2024-09-12T18:49:48+00:00</time>
      </trkpt>
      <trkpt lat="45.37733" lon="2.30171">
        <ele>628</ele>
        <time>2024-09-12T18:49:51+00:00</time>
      </trkpt>
      <trkpt lat="45.37768" lon="2.30181">
        <ele>628</ele>
        <time>2024-09-12T18:49:54+00:00</time>
      </trkpt>
      <trkpt lat="45.37798" lon="2.30197">
        <ele>621</ele>
        <time>2024-09-12T18:49:57+00:00</time>
      </trkpt>
      <trkpt lat="45.37831" lon="2.30178">
        <ele>613</ele>
        <time>2024-09-12T18:50:00+00:00</time>
      </trkpt>
      <trkpt lat="45.37847" lon="2.30188">
        <ele>613</ele>
        <time>2024-09-12T18:50:03+00:00</time>
      </trkpt>
      <trkpt lat="45.37866" lon="2.30219">
        <ele>609</ele>
        <time>2024-09-12T18:50:06+00:00</time>
      </trkpt>
      <trkpt lat="45.37884" lon="2.30238">
        <ele>607</ele>
        <time>2024-09-12T18:50:09+00:00</time>
      </trkpt>
      <trkpt lat="45.37905" lon="2.30231">
        <ele>607</ele>
        <time>2024-09-12T18:50:12+00:00</time>
      </trkpt>
      <trkpt lat="45.37933" lon="2.30213">
        <ele>606</ele>
        <time>2024-09-12T18:50:15+00:00</time>
      </trkpt>
      <trkpt lat="45.37966" lon="2.30204">
        <ele>606</ele>
        <time>2024-09-12T18:50:18+00:00</time>
      </trkpt>
      <trkpt lat="45.37985" lon="2.30215">
        <ele>610</ele>
        <time>2024-09-12T18:50:21+00:00</time>
      </trkpt>
      <trkpt lat="45.37986" lon="2.30267">
        <ele>614</ele>
        <time>2024-09-12T18:50:24+00:00</time>
      </trkpt>
      <trkpt lat="45.3801" lon="2.30269">
        <ele>615</ele>
        <time>2024-09-12T18:50:27+00:00</time>
      </trkpt>
      <trkpt lat="45.38033" lon="2.30278">
        <ele>615</ele>
        <time>2024-09-12T18:50:30+00:00</time>
      </trkpt>
      <trkpt lat="45.38059" lon="2.30308">
        <ele>614</ele>
        <time>2024-09-12T18:50:33+00:00</time>
      </trkpt>
      <trkpt lat="45.38072" lon="2.30336">
        <ele>610</ele>
        <time>2024-09-12T18:50:36+00:00</time>
      </trkpt>
      <trkpt lat="45.38086" lon="2.30377">
        <ele>607</ele>
        <time>2024-09-12T18:50:39+00:00</time>
      </trkpt>
      <trkpt lat="45.381" lon="2.30418">
        <ele>608</ele>
        <time>2024-09-12T18:50:42+00:00</time>
      </trkpt>
      <trkpt lat="45.38116" lon="2.30464">
        <ele>606</ele>
        <time>2024-09-12T18:50:45+00:00</time>
      </trkpt>
      <trkpt lat="45.38131" lon="2.30509">
        <ele>606</ele>
        <time>2024-09-12T18:50:48+00:00</time>
      </trkpt>
      <trkpt lat="45.38141" lon="2.30534">
        <ele>607</ele>
        <time>2024-09-12T18:50:51+00:00</time>
      </trkpt>
      <trkpt lat="45.38169" lon="2.30564">
        <ele>609</ele>
        <time>2024-09-12T18:50:54+00:00</time>
      </trkpt>
      <trkpt lat="45.38189" lon="2.30577">
        <ele>613</ele>
        <time>2024-09-12T18:50:57+00:00</time>
      </trkpt>
      <trkpt lat="45.38242" lon="2.30612">
        <ele>622</ele>
        <time>2024-09-12T18:51:00+00:00</time>
      </trkpt>
      <trkpt lat="45.38276" lon="2.30642">
        <ele>621</ele>
        <time>2024-09-12T18:51:03+00:00</time>
      </trkpt>
      <trkpt lat="45.38291" lon="2.30667">
        <ele>620</ele>
        <time>2024-09-12T18:51:06+00:00</time>
      </trkpt>
      <trkpt lat="45.38304" lon="2.30702">
        <ele>618</ele>
        <time>2024-09-12T18:51:09+00:00</time>
      </trkpt>
      <trkpt lat="45.38321" lon="2.30749">
        <ele>618</ele>
        <time>2024-09-12T18:51:12+00:00</time>
      </trkpt>
      <trkpt lat="45.38341" lon="2.30739">
        <ele>621</ele>
        <time>2024-09-12T18:51:15+00:00</time>
      </trkpt>
      <trkpt lat="45.38376" lon="2.30746">
        <ele>625</ele>
        <time>2024-09-12T18:51:18+00:00</time>
      </trkpt>
      <trkpt lat="45.38406" lon="2.30743">
        <ele>634</ele>
        <time>2024-09-12T18:51:21+00:00</time>
      </trkpt>
      <trkpt lat="45.38412" lon="2.30775">
        <ele>642</ele>
        <time>2024-09-12T18:51:24+00:00</time>
      </trkpt>
      <trkpt lat="45.38443" lon="2.30789">
        <ele>649</ele>
        <time>2024-09-12T18:51:27+00:00</time>
      </trkpt>
      <trkpt lat="45.3847" lon="2.30803">
        <ele>652</ele>
        <time>2024-09-12T18:51:30+00:00</time>
      </trkpt>
      <trkpt lat="45.38491" lon="2.30813">
        <ele>652</ele>
        <time>2024-09-12T18:51:33+00:00</time>
      </trkpt>
      <trkpt lat="45.38514" lon="2.3082">
        <ele>649</ele>
        <time>2024-09-12T18:51:36+00:00</time>
      </trkpt>
      <trkpt lat="45.38535" lon="2.3082">
        <ele>649</ele>
        <time>2024-09-12T18:51:39+00:00</time>
      </trkpt>
      <trkpt lat="45.38587" lon="2.30806">
        <ele>643</ele>
        <time>2024-09-12T18:51:42+00:00</time>
      </trkpt>
      <trkpt lat="45.3862" lon="2.30799">
        <ele>642</ele>
        <time>2024-09-12T18:51:45+00:00</time>
      </trkpt>
      <trkpt lat="45.38649" lon="2.30799">
        <ele>642</ele>
        <time>2024-09-12T18:51:48+00:00</time>
      </trkpt>
      <trkpt lat="45.38695" lon="2.30799">
        <ele>635</ele>
        <time>2024-09-12T18:51:51+00:00</time>
      </trkpt>
      <trkpt lat="45.3872" lon="2.30801">
        <ele>629</ele>
        <time>2024-09-12T18:51:54+00:00</time>
      </trkpt>
      <trkpt lat="45.38748" lon="2.30847">
        <ele>621</ele>
        <time>2024-09-12T18:51:57+00:00</time>
      </trkpt>
      <trkpt lat="45.3878" lon="2.30836">
        <ele>616</ele>
        <time>2024-09-12T18:52:00+00:00</time>
      </trkpt>
      <trkpt lat="45.38785" lon="2.30748">
        <ele>616</ele>
        <time>2024-09-12T18:52:03+00:00</time>
      </trkpt>
      <trkpt lat="45.3882" lon="2.30742">
        <ele>613</ele>
        <time>2024-09-12T18:52:06+00:00</time>
      </trkpt>
      <trkpt lat="45.38813" lon="2.30688">
        <ele>605</ele>
        <time>2024-09-12T18:52:09+00:00</time>
      </trkpt>
      <trkpt lat="45.38809" lon="2.30639">
        <ele>605</ele>
        <time>2024-09-12T18:52:12+00:00</time>
      </trkpt>
      <trkpt lat="45.38819" lon="2.30607">
        <ele>604</ele>
        <time>2024-09-12T18:52:15+00:00</time>
      </trkpt>
      <trkpt lat="45.3883" lon="2.30574">
        <ele>603</ele>
        <time>2024-09-12T18:52:18+00:00</time>
      </trkpt>
      <trkpt lat="45.38837" lon="2.3051">
        <ele>599</ele>
        <time>2024-09-12T18:52:21+00:00</time>
      </trkpt>
      <trkpt lat="45.38846" lon="2.30476">
        <ele>599</ele>
        <time>2024-09-12T18:52:24+00:00</time>
      </trkpt>
      <trkpt lat="45.38889" lon="2.30487">
        <ele>601</ele>
        <time>2024-09-12T18:52:27+00:00</time>
      </trkpt>
      <trkpt lat="45.38919" lon="2.30478">
        <ele>601</ele>
        <time>2024-09-12T18:52:30+00:00</time>
      </trkpt>
      <trkpt lat="45.38931" lon="2.30453">
        <ele>601</ele>
        <time>2024-09-12T18:52:33+00:00</time>
      </trkpt>
      <trkpt lat="45.3893" lon="2.30419">
        <ele>599.9</ele>
        <time>2024-09-12T18:52:36+00:00</time>
      </trkpt>
      <trkpt lat="45.38929" lon="2.30385">
        <ele>600.7</ele>
        <time>2024-09-12T18:52:39+00:00</time>
      </trkpt>
      <trkpt lat="45.38941" lon="2.30351">
        <ele>601</ele>
      </trkpt>
      <trkpt lat="45.38962" lon="2.3035">
        <ele>599</ele>
        <time>2024-09-12T18:52:42+00:00</time>
      </trkpt>
      <trkpt lat="45.3898" lon="2.30344">
        <ele>601.1</ele>
        <time>2024-09-12T18:52:45+00:00</time>
      </trkpt>
      <trkpt lat="45.38994" lon="2.30334">
        <ele>600</ele>
        <time>2024-09-12T18:52:48+00:00</time>
      </trkpt>
      <trkpt lat="45.3901" lon="2.30314">
        <ele>600.5</ele>
        <time>2024-09-12T18:52:51+00:00</time>
      </trkpt>
      <trkpt lat="45.39051" lon="2.30336">
        <ele>609</ele>
        <time>2024-09-12T18:52:54+00:00</time>
      </trkpt>
      <trkpt lat="45.39069" lon="2.30368">
        <ele>621</ele>
        <time>2024-09-12T18:52:57+00:00</time>
      </trkpt>
      <trkpt lat="45.39086" lon="2.30394">
        <ele>622</ele>
        <time>2024-09-12T18:53:00+00:00</time>
      </trkpt>
      <trkpt lat="45.39106" lon="2.304">
        <ele>614.8</ele>
        <time>2024-09-12T18:53:03+00:00</time>
      </trkpt>
    </trkseg>
  </trk>
</gpx>